Zarling — WDD7883 — position and weather

sailwx.info

Track history (hours):
 
Tides and Currents Weather Stations Pressure Air Temp Water Temp Dewpoint Dewpoint Depression Visibility Wind Speed Wind Dir Waves Ship Positions

Zarling

Owner: Clean Rivers Co-op, Portland, OR. More information available from US FCC via Universal Licensing System.

Last reported at 2017-Feb-24 05:33 UTC. Time now 2017-Feb-24 05:57 UTC.
Position N 46°10' W 123°03'.

Length 12 m.

Type: Pollution control. MMSI: 3699126.

Date/timePositionNaut miles runAvg speedWind from/ knotsBaromVisibWave heightAir tempDewpointWater temp
2017-Feb-24 05:33N 46°10' W 123°03'14497.5
2017-Feb-24 05:31N 46°12' W 123°23'14158.5
2017-Feb-24 05:26N 46°10' W 123°03'40162.3
2017-Feb-24 05:11N 45°33' W 122°42'4061.3
2017-Feb-24 04:32N 46°10' W 123°03'14227.3
2017-Feb-24 04:28N 46°12' W 123°23'14628.1
2017-Feb-24 04:27N 46°10' W 123°03'40615.9
2017-Feb-24 04:23N 45°33' W 122°42'4047.9
2017-Feb-24 03:33N 46°10' W 123°03'40942.1
2017-Feb-24 03:30N 45°33' W 122°42'401758.0
2017-Feb-24 03:29N 46°10' W 123°03'14223.3
2017-Feb-24 03:25N 46°12' W 123°23'1415.7
2017-Feb-24 02:32N 46°10' W 123°03'141196.3
2017-Feb-24 02:31N 46°12' W 123°23'14628.1
2017-Feb-24 02:30N 46°10' W 123°03'40271.4
2017-Feb-24 02:21N 45°33' W 122°42'0 0.0
2017-Feb-24 01:33N 45°33' W 122°42'40581.3
2017-Feb-24 01:29N 46°10' W 123°03'0 0.2
2017-Feb-24 01:27N 46°10' W 123°03'1442.5
2017-Feb-24 01:07N 46°12' W 123°23'1424.4
2017-Feb-24 00:33N 46°10' W 123°03'0 0.4
2017-Feb-24 00:32N 46°10' W 123°03'141225.4
2017-Feb-24 00:31N 46°12' W 123°23'49401.6
2017-Feb-24 00:24N 45°33' W 122°42'4955.3
2017-Feb-23 23:31N 46°12' W 123°23'14628.1
2017-Feb-23 23:30N 46°10' W 123°03'0 0.4
2017-Feb-23 23:29N 46°10' W 123°03'40141.9
2017-Feb-23 23:12N 45°33' W 122°42'0 0.0
2017-Feb-23 22:30N 45°33' W 122°42'4014413.8
2017-Feb-23 22:30N 46°10' W 123°03'0 0.1
2017-Feb-23 22:26N 46°10' W 123°03'14222.3
2017-Feb-23 22:22N 46°12' W 123°23'1417.0
2017-Feb-23 21:33N 46°10' W 123°03'0 0.4
2017-Feb-23 21:32N 46°10' W 123°03'141196.3
2017-Feb-23 21:31N 46°12' W 123°23'1414.4
2017-Feb-23 20:33N 46°10' W 123°03'14474.0
2017-Feb-23 20:31N 46°12' W 123°23'14161.0
2017-Feb-23 20:26N 46°10' W 123°03'0 0.0
2017-Feb-23 19:32N 46°10' W 123°03'14985.2
2017-Feb-23 19:31N 46°12' W 123°23'14661.1
2017-Feb-23 19:30N 46°10' W 123°03'40115.0
2017-Feb-23 19:09N 45°33' W 122°42'4064.8
2017-Feb-23 18:32N 46°10' W 123°03'141116.5
2017-Feb-23 18:31N 46°12' W 123°23'14620.3
2017-Feb-23 18:30N 46°10' W 123°03'1414.3
2017-Feb-23 17:31N 46°12' W 123°23'14652.6
2017-Feb-23 17:30N 46°10' W 123°03'0 0.4
2017-Feb-23 17:29N 46°10' W 123°03'0 0.0
2017-Feb-23 16:33N 46°10' W 123°03'0 0.4
2017-Feb-23 16:32N 46°10' W 123°03'141004.9
2017-Feb-23 16:31N 46°12' W 123°23'0 0.0
2017-Feb-23 15:31N 46°12' W 123°23'14636.0
2017-Feb-23 15:30N 46°10' W 123°03'0 0.1
2017-Feb-23 15:26N 46°10' W 123°03'0 0.0
2017-Feb-23 14:30N 46°10' W 123°03'0 0.4
2017-Feb-23 14:29N 46°10' W 123°03'0 0.0
2017-Feb-23 13:23N 46°10' W 123°03'0 0.2
2017-Feb-23 13:21N 46°10' W 123°03'14492.6
2017-Feb-23 13:19N 46°12' W 123°23'1417.0
2017-Feb-23 12:30N 46°10' W 123°03'14178.2
2017-Feb-23 12:25N 46°12' W 123°23'14163.1
2017-Feb-23 12:20N 46°10' W 123°03'0 0.0
2017-Feb-23 11:33N 46°10' W 123°03'0 3.0
2017-Feb-23 11:32N 46°10' W 123°03'1465.1
2017-Feb-23 11:19N 46°12' W 123°23'1417.8
2017-Feb-23 10:32N 46°10' W 123°03'14948.0
2017-Feb-23 10:31N 46°12' W 123°23'14652.6
2017-Feb-23 10:30N 46°10' W 123°03'0 0.0
2017-Feb-23 09:30N 46°10' W 123°03'0 0.4
2017-Feb-23 09:29N 46°10' W 123°03'14217.5
2017-Feb-23 09:25N 46°12' W 123°23'1416.0
2017-Feb-23 08:33N 46°10' W 123°03'0 0.1
2017-Feb-23 08:29N 46°10' W 123°03'14214.7
2017-Feb-23 08:25N 46°12' W 123°23'1416.0
2017-Feb-23 07:33N 46°10' W 123°03'0 0.5
2017-Feb-23 07:32N 46°10' W 123°03'14217.5
2017-Feb-23 07:28N 46°12' W 123°23'1415.1
2017-Feb-23 06:33N 46°10' W 123°03'0 0.5
2017-Feb-23 06:32N 46°10' W 123°03'14216.6
2017-Feb-23 06:28N 46°12' W 123°23'1414.2
2017-Feb-23 05:29N 46°10' W 123°03'14213.8
2017-Feb-23 05:25N 46°12' W 123°23'14114.2
2017-Feb-23 05:18N 46°10' W 123°03'0 0.0
2017-Feb-23 04:33N 46°10' W 123°03'0 0.3
2017-Feb-23 04:31N 46°10' W 123°03'142392.5
2017-Feb-23 04:31N 46°12' W 123°23'1414.3
2017-Feb-23 03:33N 46°10' W 123°03'0 0.5
2017-Feb-23 03:32N 46°10' W 123°03'1444.3
2017-Feb-23 03:13N 46°12' W 123°23'1420.1
2017-Feb-23 02:31N 46°10' W 123°03'0 0.1
2017-Feb-23 02:27N 46°10' W 123°03'0 0.0
2017-Feb-23 01:33N 46°10' W 123°03'0 0.0
2017-Feb-23 01:22N 46°10' W 123°03'141860.9
2017-Feb-23 01:22N 46°12' W 123°23'1417.0
2017-Feb-23 00:33N 46°10' W 123°03'0 0.1
2017-Feb-23 00:28N 46°10' W 123°03'0 0.0
2017-Feb-22 23:31N 46°10' W 123°03'141794.4
2017-Feb-22 23:31N 46°12' W 123°23'14114.5
2017-Feb-22 23:24N 46°10' W 123°03'0 0.0
2017-Feb-22 22:31N 46°10' W 123°03'141620.7
2017-Feb-22 22:31N 46°12' W 123°23'14192.5
2017-Feb-22 22:27N 46°10' W 123°03'1415.1
2017-Feb-22 21:31N 46°12' W 123°23'14598.2
2017-Feb-22 21:30N 46°10' W 123°03'0 0.5
2017-Feb-22 21:29N 46°10' W 123°03'1414.5
2017-Feb-22 20:31N 46°12' W 123°23'14628.1
2017-Feb-22 20:30N 46°10' W 123°03'0 0.3
2017-Feb-22 20:28N 46°10' W 123°03'0 0.0
2017-Feb-22 19:31N 46°10' W 123°03'141570.1
2017-Feb-22 19:31N 46°12' W 123°23'14115.2
2017-Feb-22 19:24N 46°10' W 123°03'0 0.0
2017-Feb-22 18:31N 46°10' W 123°03'0 0.2
2017-Feb-22 18:30N 46°10' W 123°03'1478.3
2017-Feb-22 18:19N 46°12' W 123°23'0 0.0
2017-Feb-22 17:31N 46°12' W 123°23'14151.3
2017-Feb-22 17:25N 46°10' W 123°03'0 0.2
2017-Feb-22 17:24N 46°10' W 123°03'0 0.0
2017-Feb-22 16:31N 46°10' W 123°03'141732.5
2017-Feb-22 16:31N 46°12' W 123°23'14605.4
2017-Feb-22 16:30N 46°10' W 123°03'4042.3
2017-Feb-22 15:33N 45°33' W 122°42'401676.3
2017-Feb-22 15:31N 46°10' W 123°03'0 0.2
2017-Feb-22 15:30N 46°10' W 123°03'14182.1
2017-Feb-22 15:25N 46°12' W 123°23'1415.6
2017-Feb-22 14:31N 46°10' W 123°03'0 0.2
2017-Feb-22 14:30N 46°10' W 123°03'14487.8
2017-Feb-22 14:28N 46°12' W 123°23'4952.9
2017-Feb-22 13:33N 45°33' W 122°42'40560.8
2017-Feb-22 13:28N 46°10' W 123°03'0 0.1
2017-Feb-22 13:23N 46°10' W 123°03'14225.3
2017-Feb-22 13:19N 46°12' W 123°23'1417.7
2017-Feb-22 12:32N 46°10' W 123°03'0 3.1
2017-Feb-22 12:31N 46°10' W 123°03'141477.7
2017-Feb-22 12:31N 46°12' W 123°23'49152.3
2017-Feb-22 12:12N 45°33' W 122°42'4059.9
2017-Feb-22 11:32N 46°10' W 123°03'0 2.7
2017-Feb-22 11:31N 46°10' W 123°03'401413.3
2017-Feb-22 11:30N 45°33' W 122°42'491268.9
2017-Feb-22 11:27N 46°12' W 123°23'1415.0
2017-Feb-22 10:31N 46°10' W 123°03'401334.8
2017-Feb-22 10:30N 45°33' W 122°42'40583.6
2017-Feb-22 10:26N 46°10' W 123°03'1444.3
2017-Feb-22 10:07N 46°12' W 123°23'0 0.0
2017-Feb-22 09:31N 46°12' W 123°23'14380.6
2017-Feb-22 09:28N 46°10' W 123°03'0 0.1
2017-Feb-22 09:26N 46°10' W 123°03'0 0.0
2017-Feb-22 08:32N 46°10' W 123°03'0 4.3
2017-Feb-22 08:31N 46°10' W 123°03'141004.9
2017-Feb-22 08:31N 46°12' W 123°23'1414.2
2017-Feb-22 07:32N 46°10' W 123°03'0 5.4
2017-Feb-22 07:32N 46°10' W 123°03'141025.4
2017-Feb-22 07:31N 46°12' W 123°23'1414.2
2017-Feb-22 06:32N 46°10' W 123°03'0 2.7
2017-Feb-22 06:32N 46°10' W 123°03'14985.2
2017-Feb-22 06:31N 46°12' W 123°23'1414.2
2017-Feb-22 05:32N 46°10' W 123°03'0 5.4
2017-Feb-22 05:32N 46°10' W 123°03'40173.7
2017-Feb-22 05:18N 45°33' W 122°42'49264.1
2017-Feb-22 05:07N 46°12' W 123°23'1423.9
2017-Feb-22 04:32N 46°10' W 123°03'0 4.3
2017-Feb-22 04:32N 46°10' W 123°03'401347.3
2017-Feb-22 04:30N 45°33' W 122°42'49581.8
2017-Feb-22 04:25N 46°12' W 123°23'1415.8
2017-Feb-22 03:32N 46°10' W 123°03'0 0.1
2017-Feb-22 03:29N 46°10' W 123°03'14215.6
2017-Feb-22 03:25N 46°12' W 123°23'49738.9
2017-Feb-22 03:21N 45°33' W 122°42'4048.9
2017-Feb-22 02:32N 46°10' W 123°03'0 0.0
2017-Feb-22 02:20N 46°10' W 123°03'14948.0
2017-Feb-22 02:19N 46°12' W 123°23'49294.8
2017-Feb-22 02:09N 45°33' W 122°42'4064.5
2017-Feb-22 01:32N 46°10' W 123°03'0 0.1
2017-Feb-22 01:29N 46°10' W 123°03'401275.6
2017-Feb-22 01:27N 45°33' W 122°42'0 0.0
2017-Feb-22 00:30N 45°33' W 122°42'491447.2
2017-Feb-22 00:28N 46°12' W 123°23'14402.0
2017-Feb-22 00:26N 46°10' W 123°03'0 7.2
2017-Feb-22 00:26N 46°10' W 123°03'0 0.0
2017-Feb-21 23:32N 46°10' W 123°03'40495.3
2017-Feb-21 23:27N 45°33' W 122°42'402059.4
2017-Feb-21 23:26N 46°10' W 123°03'1444.3
2017-Feb-21 23:07N 46°12' W 123°23'4985.9
2017-Feb-21 22:33N 45°33' W 122°42'402119.4
2017-Feb-21 22:32N 46°10' W 123°03'0 0.1
2017-Feb-21 22:29N 46°10' W 123°03'14212.9
2017-Feb-21 22:25N 46°12' W 123°23'1415.8
2017-Feb-21 21:32N 46°10' W 123°03'14985.2
2017-Feb-21 21:31N 46°12' W 123°23'14395.6
2017-Feb-21 21:29N 46°10' W 123°03'0 0.0
2017-Feb-21 20:32N 46°10' W 123°03'0 0.1
2017-Feb-21 20:29N 46°10' W 123°03'1484.0
2017-Feb-21 20:19N 46°12' W 123°23'4964.1
2017-Feb-21 19:33N 45°33' W 122°42'401481.2
2017-Feb-21 19:32N 46°10' W 123°03'021.6
2017-Feb-21 19:32N 46°10' W 123°03'14897.3
2017-Feb-21 19:31N 46°12' W 123°23'1414.2
2017-Feb-21 18:32N 46°10' W 123°03'0 0.1
2017-Feb-21 18:29N 46°10' W 123°03'14212.9
2017-Feb-21 18:25N 46°12' W 123°23'49250.5
2017-Feb-21 18:13N 45°33' W 122°42'4058.7
2017-Feb-21 17:32N 46°10' W 123°03'0 0.1
2017-Feb-21 17:26N 46°10' W 123°03'14120.8
2017-Feb-21 17:19N 46°12' W 123°23'1418.3
2017-Feb-21 16:33N 46°10' W 123°03'14100.1
2017-Feb-21 16:25N 46°12' W 123°23'14415.2
2017-Feb-21 16:23N 46°10' W 123°03'0 0.0
2017-Feb-21 15:30N 46°10' W 123°03'0 0.3
2017-Feb-21 15:29N 46°10' W 123°03'1484.0
2017-Feb-21 15:19N 46°12' W 123°23'1418.3
2017-Feb-21 14:33N 46°10' W 123°03'0 0.3
2017-Feb-21 14:32N 46°10' W 123°03'14881.5
2017-Feb-21 14:31N 46°12' W 123°23'1414.2
2017-Feb-21 13:32N 46°10' W 123°03'14881.5
2017-Feb-21 13:31N 46°12' W 123°23'141256.2
2017-Feb-21 13:30N 46°10' W 123°03'0 0.0
2017-Feb-21 12:33N 46°10' W 123°03'0 0.3
2017-Feb-21 12:32N 46°10' W 123°03'14851.6
2017-Feb-21 12:31N 46°12' W 123°23'1414.5
2017-Feb-21 11:33N 46°10' W 123°03'0 0.1
2017-Feb-21 11:29N 46°10' W 123°03'0 0.0
2017-Feb-21 10:33N 46°10' W 123°03'0 0.3
2017-Feb-21 10:32N 46°10' W 123°03'14810.4
2017-Feb-21 10:31N 46°12' W 123°23'1414.5
2017-Feb-21 09:33N 46°10' W 123°03'0 0.3
2017-Feb-21 09:32N 46°10' W 123°03'14207.6
2017-Feb-21 09:28N 46°12' W 123°23'1415.3
2017-Feb-21 08:33N 46°10' W 123°03'14356.4
2017-Feb-21 08:31N 46°12' W 123°23'14422.2
2017-Feb-21 08:29N 46°10' W 123°03'0 0.0
2017-Feb-21 07:33N 46°10' W 123°03'14356.4
2017-Feb-21 07:31N 46°12' W 123°23'14433.1
2017-Feb-21 07:29N 46°10' W 123°03'0 0.0
2017-Feb-21 06:32N 46°10' W 123°03'14823.7
2017-Feb-21 06:31N 46°12' W 123°23'141256.2
2017-Feb-21 06:30N 46°10' W 123°03'0 0.0
2017-Feb-21 05:33N 46°10' W 123°03'0 0.3
2017-Feb-21 05:32N 46°10' W 123°03'1482.9
2017-Feb-21 05:22N 46°12' W 123°23'1417.2
2017-Feb-21 04:33N 46°10' W 123°03'0 0.3
2017-Feb-21 04:32N 46°10' W 123°03'14118.5
2017-Feb-21 04:25N 46°12' W 123°23'1416.2
2017-Feb-21 03:33N 46°10' W 123°03'0 0.5
2017-Feb-21 03:32N 46°10' W 123°03'14110.4
2017-Feb-21 03:25N 46°12' W 123°23'1416.0
2017-Feb-21 02:32N 46°10' W 123°03'0 0.1
2017-Feb-21 02:27N 46°10' W 123°03'14100.5
2017-Feb-21 02:19N 46°12' W 123°23'1418.3
2017-Feb-21 01:33N 46°10' W 123°03'0 0.5
2017-Feb-21 01:32N 46°10' W 123°03'401802.0
2017-Feb-21 01:31N 45°33' W 122°42'498338.5
2017-Feb-21 01:31N 46°12' W 123°23'0 0.0
2017-Feb-21 00:31N 46°12' W 123°23'14126.2
2017-Feb-21 00:24N 46°10' W 123°03'0 0.3
2017-Feb-21 00:23N 46°10' W 123°03'40355.9
2017-Feb-21 00:16N 45°33' W 122°42'4055.9
2017-Feb-20 23:33N 46°10' W 123°03'14358.9
2017-Feb-20 23:31N 46°12' W 123°23'14422.2
2017-Feb-20 23:29N 46°10' W 123°03'40188.0
2017-Feb-20 23:16N 45°33' W 122°42'4055.9
2017-Feb-20 22:33N 46°10' W 123°03'0 0.3
2017-Feb-20 22:32N 46°10' W 123°03'14717.8
2017-Feb-20 22:31N 46°12' W 123°23'49199.2
2017-Feb-20 22:16N 45°33' W 122°42'0 0.0
2017-Feb-20 21:31N 45°33' W 122°42'497612.6
2017-Feb-20 21:31N 46°12' W 123°23'141288.4
2017-Feb-20 21:30N 46°10' W 123°03'0 0.3
2017-Feb-20 21:29N 46°10' W 123°03'0 0.0
2017-Feb-20 20:32N 46°10' W 123°03'403067.2
2017-Feb-20 20:31N 45°33' W 122°42'402252.2
2017-Feb-20 20:30N 46°10' W 123°03'14158.0
2017-Feb-20 20:25N 46°12' W 123°23'1414.2
2017-Feb-20 19:26N 46°10' W 123°03'403067.2
2017-Feb-20 19:25N 45°33' W 122°42'497296.2
2017-Feb-20 19:25N 46°12' W 123°23'141358.0
2017-Feb-20 19:24N 46°10' W 123°03'0 0.0
2017-Feb-20 18:33N 46°10' W 123°03'0 0.3
2017-Feb-20 18:32N 46°10' W 123°03'14707.7
2017-Feb-20 18:31N 46°12' W 123°23'49123.4
2017-Feb-20 18:07N 45°33' W 122°42'4070.6
2017-Feb-20 17:33N 46°10' W 123°03'0 0.1
2017-Feb-20 17:29N 46°10' W 123°03'14201.0
2017-Feb-20 17:25N 46°12' W 123°23'1415.8
2017-Feb-20 16:32N 46°10' W 123°03'0 0.2
2017-Feb-20 16:30N 46°10' W 123°03'1473.7
2017-Feb-20 16:19N 46°12' W 123°23'1418.3
2017-Feb-20 15:33N 46°10' W 123°03'14358.9
2017-Feb-20 15:31N 46°12' W 123°23'14221.3
2017-Feb-20 15:27N 46°10' W 123°03'40156.2
2017-Feb-20 15:12N 45°33' W 122°42'4062.2
2017-Feb-20 14:33N 46°10' W 123°03'0 0.1
2017-Feb-20 14:27N 46°10' W 123°03'14364.1
2017-Feb-20 14:25N 46°12' W 123°23'49152.1
2017-Feb-20 14:06N 45°33' W 122°42'4074.0
2017-Feb-20 13:33N 46°10' W 123°03'0 2.4
2017-Feb-20 13:33N 46°10' W 123°03'14160.0
2017-Feb-20 13:28N 46°12' W 123°23'49180.9
2017-Feb-20 13:12N 45°33' W 122°42'4062.4
2017-Feb-20 12:33N 46°10' W 123°03'0 2.7
2017-Feb-20 12:33N 46°10' W 123°03'14380.6
2017-Feb-20 12:31N 46°12' W 123°23'49406.3
2017-Feb-20 12:23N 45°33' W 122°42'4047.6
2017-Feb-20 11:33N 46°10' W 123°03'0 0.1
2017-Feb-20 11:30N 46°10' W 123°03'406267.8
2017-Feb-20 11:30N 45°33' W 122°42'49112.8
2017-Feb-20 11:04N 46°12' W 123°23'1426.8
2017-Feb-20 10:32N 46°10' W 123°03'0 0.1
2017-Feb-20 10:27N 46°10' W 123°03'14353.8
2017-Feb-20 10:25N 46°12' W 123°23'1415.3
2017-Feb-20 09:30N 46°10' W 123°03'0 0.6
2017-Feb-20 09:29N 46°10' W 123°03'1477.8
2017-Feb-20 09:19N 46°12' W 123°23'1418.1
2017-Feb-20 08:32N 46°10' W 123°03'14507.5
2017-Feb-20 08:31N 46°12' W 123°23'141142.0
2017-Feb-20 08:30N 46°10' W 123°03'404504.3
2017-Feb-20 08:30N 45°33' W 122°42'4042.1
2017-Feb-20 07:32N 46°10' W 123°03'14478.5
2017-Feb-20 07:31N 46°12' W 123°23'14125.6
2017-Feb-20 07:24N 46°10' W 123°03'0 0.0
2017-Feb-20 06:33N 46°10' W 123°03'0 0.3
2017-Feb-20 06:32N 46°10' W 123°03'14192.5
2017-Feb-20 06:28N 46°12' W 123°23'0 0.0
2017-Feb-20 05:31N 46°12' W 123°23'14474.0
2017-Feb-20 05:29N 46°10' W 123°03'0 0.2
2017-Feb-20 05:27N 46°10' W 123°03'0 0.0
2017-Feb-20 04:32N 46°10' W 123°03'0 0.2
2017-Feb-20 04:30N 46°10' W 123°03'14156.0
2017-Feb-20 04:25N 46°12' W 123°23'1416.2
2017-Feb-20 03:33N 46°10' W 123°03'0 0.0
2017-Feb-20 03:14N 46°10' W 123°03'0 0.0
2017-Feb-20 02:33N 46°10' W 123°03'0 0.3
2017-Feb-20 02:32N 46°10' W 123°03'0 0.0
2017-Feb-20 01:33N 46°10' W 123°03'0 0.3
2017-Feb-20 01:32N 46°10' W 123°03'0 0.0
2017-Feb-20 00:32N 46°10' W 123°03'0 0.1
2017-Feb-20 00:27N 46°10' W 123°03'1458.6
2017-Feb-20 00:13N 46°12' W 123°23'0 0.0
2017-Feb-19 23:31N 46°12' W 123°23'141288.4
2017-Feb-19 23:30N 46°10' W 123°03'40683.1
2017-Feb-19 23:27N 45°33' W 122°42'40683.2
2017-Feb-19 23:23N 46°10' W 123°03'0 0.0
2017-Feb-19 22:32N 46°10' W 123°03'0 0.2
2017-Feb-19 22:30N 46°10' W 123°03'0 0.0
2017-Feb-19 21:33N 46°10' W 123°03'405337.7
2017-Feb-19 21:33N 45°33' W 122°42'40683.1
2017-Feb-19 21:29N 46°10' W 123°03'1462.6
2017-Feb-19 21:16N 46°12' W 123°23'1418.4
2017-Feb-19 20:30N 46°10' W 123°03'405338.5
2017-Feb-19 20:30N 45°33' W 122°42'404650.3
2017-Feb-19 20:29N 46°10' W 123°03'1451.4
2017-Feb-19 20:13N 46°12' W 123°23'1421.1
2017-Feb-19 19:33N 46°10' W 123°03'0 0.4
2017-Feb-19 19:32N 46°10' W 123°03'0 0.0
2017-Feb-19 18:33N 46°10' W 123°03'14366.8
2017-Feb-19 18:31N 46°12' W 123°23'14497.5
2017-Feb-19 18:29N 46°10' W 123°03'0 0.0
2017-Feb-19 17:32N 46°10' W 123°03'0 0.1
2017-Feb-19 17:27N 46°10' W 123°03'14100.5
2017-Feb-19 17:19N 46°12' W 123°23'1418.3
2017-Feb-19 16:33N 46°10' W 123°03'0 0.4
2017-Feb-19 16:32N 46°10' W 123°03'1462.4
2017-Feb-19 16:19N 46°12' W 123°23'1418.0
2017-Feb-19 15:32N 46°10' W 123°03'14598.1
2017-Feb-19 15:31N 46°12' W 123°23'141256.2
2017-Feb-19 15:30N 46°10' W 123°03'0 0.0
2017-Feb-19 14:32N 46°10' W 123°03'0 0.1
2017-Feb-19 14:27N 46°10' W 123°03'1458.4
2017-Feb-19 14:13N 46°12' W 123°23'1419.6
2017-Feb-19 13:30N 46°10' W 123°03'0 0.4
2017-Feb-19 13:29N 46°10' W 123°03'40165.1
2017-Feb-19 13:15N 45°33' W 122°42'491606.5
2017-Feb-19 13:13N 46°12' W 123°23'1419.2
2017-Feb-19 12:29N 46°10' W 123°03'14189.6
2017-Feb-19 12:25N 46°12' W 123°23'141225.5
2017-Feb-19 12:24N 46°10' W 123°03'0 0.0
2017-Feb-19 11:32N 46°10' W 123°03'0 0.2
2017-Feb-19 11:30N 46°10' W 123°03'14100.1
2017-Feb-19 11:22N 46°12' W 123°23'1416.2
2017-Feb-19 10:30N 46°10' W 123°03'0 0.4
2017-Feb-19 10:29N 46°10' W 123°03'14188.2
2017-Feb-19 10:25N 46°12' W 123°23'1415.3
2017-Feb-19 09:30N 46°10' W 123°03'0 0.4
2017-Feb-19 09:29N 46°10' W 123°03'0 0.0
2017-Feb-19 08:33N 46°10' W 123°03'0 0.0
2017-Feb-19 08:26N 46°10' W 123°03'40296.0
2017-Feb-19 08:18N 45°33' W 122°42'4052.3
2017-Feb-19 07:32N 46°10' W 123°03'0 0.2
2017-Feb-19 07:30N 46°10' W 123°03'1458.3
2017-Feb-19 07:16N 46°12' W 123°23'1419.0
2017-Feb-19 06:32N 46°10' W 123°03'0 0.1
2017-Feb-19 06:27N 46°10' W 123°03'14358.9
2017-Feb-19 06:25N 46°12' W 123°23'1415.0
2017-Feb-19 05:29N 46°10' W 123°03'0 0.1
2017-Feb-19 05:24N 46°10' W 123°03'0 0.0
2017-Feb-19 04:32N 46°10' W 123°03'14810.4
2017-Feb-19 04:31N 46°12' W 123°23'141358.0
2017-Feb-19 04:30N 46°10' W 123°03'40111.7
2017-Feb-19 04:09N 45°33' W 122°42'4067.6
2017-Feb-19 03:33N 46°10' W 123°03'0 0.0
2017-Feb-19 03:23N 46°10' W 123°03'40294.2
2017-Feb-19 03:15N 45°33' W 122°42'49371.8
2017-Feb-19 03:07N 46°12' W 123°23'1422.9
2017-Feb-19 02:30N 46°10' W 123°03'0 0.1
2017-Feb-19 02:26N 46°10' W 123°03'14851.6
2017-Feb-19 02:25N 46°12' W 123°23'1415.8
2017-Feb-19 01:32N 46°10' W 123°03'0 0.2
2017-Feb-19 01:30N 46°10' W 123°03'14351.4
2017-Feb-19 01:28N 46°12' W 123°23'1415.0
2017-Feb-19 00:32N 46°10' W 123°03'0 0.2
2017-Feb-19 00:30N 46°10' W 123°03'1474.0
2017-Feb-19 00:19N 46°12' W 123°23'0 0.0
2017-Feb-18 23:31N 46°12' W 123°23'141142.0
2017-Feb-18 23:30N 46°10' W 123°03'0 0.3
2017-Feb-18 23:29N 46°10' W 123°03'0 0.0
2017-Feb-18 22:33N 46°10' W 123°03'0 0.3
2017-Feb-18 22:32N 46°10' W 123°03'40169.0
2017-Feb-18 22:18N 45°33' W 122°42'4054.0
2017-Feb-18 21:33N 46°10' W 123°03'0 0.0
2017-Feb-18 21:26N 46°10' W 123°03'0 0.0
2017-Feb-18 20:32N 46°10' W 123°03'14773.0
2017-Feb-18 20:31N 46°12' W 123°23'141358.0
2017-Feb-18 20:30N 46°10' W 123°03'0 0.0
2017-Feb-18 19:29N 46°10' W 123°03'40466.5
2017-Feb-18 19:24N 45°33' W 122°42'40942.1
2017-Feb-18 19:21N 46°10' W 123°03'1458.5
2017-Feb-18 19:07N 46°12' W 123°23'1424.0
2017-Feb-18 18:32N 46°10' W 123°03'14761.3
2017-Feb-18 18:31N 46°12' W 123°23'14226.3
2017-Feb-18 18:27N 46°10' W 123°03'40112.0
2017-Feb-18 18:06N 45°33' W 122°42'4067.8
2017-Feb-18 17:30N 46°10' W 123°03'0 0.1
2017-Feb-18 17:26N 46°10' W 123°03'14749.9
2017-Feb-18 17:25N 46°12' W 123°23'1411.8
2017-Feb-18 16:14N 46°10' W 123°03'0 0.0
2017-Feb-18 15:29N 46°10' W 123°03'0 0.2
2017-Feb-18 15:27N 46°10' W 123°03'14358.9
2017-Feb-18 15:25N 46°12' W 123°23'1415.8
2017-Feb-18 14:32N 46°10' W 123°03'0 0.2
2017-Feb-18 14:30N 46°10' W 123°03'1473.6
2017-Feb-18 14:19N 46°12' W 123°23'0 0.0
2017-Feb-18 13:31N 46°12' W 123°23'14227.4
2017-Feb-18 13:27N 46°10' W 123°03'0 0.3
2017-Feb-18 13:26N 46°10' W 123°03'0 0.0
2017-Feb-18 12:33N 46°10' W 123°03'0 0.5
2017-Feb-18 12:32N 46°10' W 123°03'14502.4
2017-Feb-18 12:31N 46°12' W 123°23'1414.5
2017-Feb-18 11:33N 46°10' W 123°03'0 0.6
2017-Feb-18 11:32N 46°10' W 123°03'14487.8
2017-Feb-18 11:31N 46°12' W 123°23'1414.4
2017-Feb-18 10:32N 46°10' W 123°03'0 0.2
2017-Feb-18 10:30N 46°10' W 123°03'0 0.0
2017-Feb-18 09:33N 46°10' W 123°03'0 0.6
2017-Feb-18 09:32N 46°10' W 123°03'0 0.0
2017-Feb-18 08:30N 46°10' W 123°03'0 0.1
2017-Feb-18 08:26N 46°10' W 123°03'1443.8
2017-Feb-18 08:07N 46°12' W 123°23'0 0.0
2017-Feb-18 07:31N 46°12' W 123°23'141288.4
2017-Feb-18 07:30N 46°10' W 123°03'0 0.0
2017-Feb-18 07:17N 46°10' W 123°03'0 0.0
2017-Feb-18 06:32N 46°10' W 123°03'0 0.1
2017-Feb-18 06:27N 46°10' W 123°03'1473.5
2017-Feb-18 06:16N 46°12' W 123°23'1419.2
2017-Feb-18 05:32N 46°10' W 123°03'0 0.1
2017-Feb-18 05:27N 46°10' W 123°03'1441.2
2017-Feb-18 05:07N 46°12' W 123°23'1424.9
2017-Feb-18 04:33N 46°10' W 123°03'0 0.3
2017-Feb-18 04:32N 46°10' W 123°03'0 0.0
2017-Feb-18 03:33N 46°10' W 123°03'0 0.3
2017-Feb-18 03:32N 46°10' W 123°03'1433.3
2017-Feb-18 03:07N 46°12' W 123°23'1424.8
2017-Feb-18 02:33N 46°10' W 123°03'0 0.1
2017-Feb-18 02:29N 46°10' W 123°03'1482.0
2017-Feb-18 02:19N 46°12' W 123°23'1417.9
2017-Feb-18 01:32N 46°10' W 123°03'0 0.2
2017-Feb-18 01:30N 46°10' W 123°03'14157.0
2017-Feb-18 01:25N 46°12' W 123°23'1416.2
2017-Feb-18 00:33N 46°10' W 123°03'14361.5
2017-Feb-18 00:31N 46°12' W 123°23'14483.1
2017-Feb-18 00:29N 46°10' W 123°03'0 0.0
2017-Feb-17 23:32N 46°10' W 123°03'0 0.2
2017-Feb-17 23:30N 46°10' W 123°03'1448.3
2017-Feb-17 23:13N 46°12' W 123°23'1421.1
2017-Feb-17 22:33N 46°10' W 123°03'0 0.3
2017-Feb-17 22:32N 46°10' W 123°03'0 0.0
2017-Feb-17 21:33N 46°10' W 123°03'0 0.4
2017-Feb-17 21:32N 46°10' W 123°03'0 0.0
2017-Feb-17 20:30N 46°10' W 123°03'0 0.3
2017-Feb-17 20:29N 46°10' W 123°03'1437.6
2017-Feb-17 20:07N 46°12' W 123°23'1424.4
2017-Feb-17 19:32N 46°10' W 123°03'0 0.2
2017-Feb-17 19:30N 46°10' W 123°03'1473.9
2017-Feb-17 19:19N 46°12' W 123°23'1418.4
2017-Feb-17 18:33N 46°10' W 123°03'0 0.1
2017-Feb-17 18:29N 46°10' W 123°03'14195.5
2017-Feb-17 18:25N 46°12' W 123°23'1416.2
2017-Feb-17 17:33N 46°10' W 123°03'0 0.3
2017-Feb-17 17:32N 46°10' W 123°03'14114.7
2017-Feb-17 17:25N 46°12' W 123°23'1416.2
2017-Feb-17 16:33N 46°10' W 123°03'0 0.1
2017-Feb-17 16:26N 46°10' W 123°03'14644.1
2017-Feb-17 16:25N 46°12' W 123°23'1416.2
2017-Feb-17 15:33N 46°10' W 123°03'0 0.3
2017-Feb-17 15:32N 46°10' W 123°03'14114.7
2017-Feb-17 15:25N 46°12' W 123°23'0 0.0
2017-Feb-17 14:31N 46°12' W 123°23'14512.7
2017-Feb-17 14:29N 46°10' W 123°03'0 0.2
2017-Feb-17 14:27N 46°10' W 123°03'0 0.0
2017-Feb-17 13:33N 46°10' W 123°03'0 0.4
2017-Feb-17 13:32N 46°10' W 123°03'14192.5
2017-Feb-17 13:28N 46°12' W 123°23'1415.0
2017-Feb-17 12:32N 46°10' W 123°03'14652.5
2017-Feb-17 12:31N 46°12' W 123°23'14124.4
2017-Feb-17 12:24N 46°10' W 123°03'0 0.0
2017-Feb-17 11:32N 46°10' W 123°03'14612.7
2017-Feb-17 11:31N 46°12' W 123°23'141256.2
2017-Feb-17 11:30N 46°10' W 123°03'0 0.0
2017-Feb-17 10:32N 46°10' W 123°03'0 0.2
2017-Feb-17 10:30N 46°10' W 123°03'14351.4
2017-Feb-17 10:28N 46°12' W 123°23'1415.1
2017-Feb-17 09:32N 46°10' W 123°03'0 0.2
2017-Feb-17 09:30N 46°10' W 123°03'40683.0
2017-Feb-17 09:27N 45°33' W 122°42'4044.9
2017-Feb-17 08:33N 46°10' W 123°03'14353.8
2017-Feb-17 08:31N 46°12' W 123°23'14512.7
2017-Feb-17 08:29N 46°10' W 123°03'0 0.0
2017-Feb-17 07:32N 46°10' W 123°03'14591.1
2017-Feb-17 07:31N 46°12' W 123°23'141322.3
2017-Feb-17 07:30N 46°10' W 123°03'40217.0
2017-Feb-17 07:19N 45°33' W 122°42'4052.2
2017-Feb-17 06:33N 46°10' W 123°03'0 0.1
2017-Feb-17 06:29N 46°10' W 123°03'40588.4
2017-Feb-17 06:25N 45°33' W 122°42'49312.1
2017-Feb-17 06:16N 46°12' W 123°23'1419.2
2017-Feb-17 05:32N 46°10' W 123°03'40340.8
2017-Feb-17 05:25N 45°33' W 122°42'498338.5
2017-Feb-17 05:25N 46°12' W 123°23'141288.4
2017-Feb-17 05:24N 46°10' W 123°03'0 0.0
2017-Feb-17 04:33N 46°10' W 123°03'401201.0
2017-Feb-17 04:31N 45°33' W 122°42'498754.5
2017-Feb-17 04:31N 46°12' W 123°23'14518.0
2017-Feb-17 04:29N 46°10' W 123°03'0 0.0
2017-Feb-17 03:27N 46°10' W 123°03'14100.1
2017-Feb-17 03:19N 46°12' W 123°23'14184.0
2017-Feb-17 03:14N 46°10' W 123°03'0 0.0
2017-Feb-17 02:33N 46°10' W 123°03'0 0.4
2017-Feb-17 02:32N 46°10' W 123°03'402120.0
2017-Feb-17 02:31N 45°33' W 122°42'49875.5
2017-Feb-17 02:28N 46°12' W 123°23'4951.5
2017-Feb-17 01:31N 45°33' W 122°42'49761.3
2017-Feb-17 01:27N 46°12' W 123°23'144567.9
2017-Feb-17 01:27N 46°10' W 123°03'0 0.4
2017-Feb-17 01:26N 46°10' W 123°03'0 0.0
2017-Feb-17 00:32N 46°10' W 123°03'14497.5
2017-Feb-17 00:30N 46°12' W 123°23'14132.2
2017-Feb-17 00:24N 46°10' W 123°03'1416.5
2017-Feb-16 23:33N 46°12' W 123°23'142184.6
2017-Feb-16 23:33N 46°10' W 123°03'0 0.1
2017-Feb-16 23:26N 46°10' W 123°03'0 0.0
2017-Feb-16 22:33N 46°10' W 123°03'0 0.5
2017-Feb-16 22:32N 46°10' W 123°03'14107.8
2017-Feb-16 22:24N 46°12' W 123°23'49542.1
2017-Feb-16 22:19N 45°33' W 122°42'4048.1
2017-Feb-16 21:29N 46°10' W 123°03'0 0.2
2017-Feb-16 21:27N 46°10' W 123°03'40171.2
2017-Feb-16 21:13N 45°33' W 122°42'4058.8
2017-Feb-16 20:32N 46°10' W 123°03'0 0.2
2017-Feb-16 20:30N 46°10' W 123°03'14150.4
2017-Feb-16 20:24N 46°12' W 123°23'0 0.0
2017-Feb-16 19:24N 46°12' W 123°23'142283.9
2017-Feb-16 19:24N 46°10' W 123°03'0 0.4
2017-Feb-16 19:23N 46°10' W 123°03'0 0.0
2017-Feb-16 18:33N 46°10' W 123°03'0 0.1
2017-Feb-16 18:26N 46°10' W 123°03'0 0.0
2017-Feb-16 17:33N 46°10' W 123°03'0 0.4
2017-Feb-16 17:32N 46°10' W 123°03'14469.6
2017-Feb-16 17:30N 46°12' W 123°23'1414.4
2017-Feb-16 16:32N 46°10' W 123°03'0 0.0
2017-Feb-16 16:24N 46°10' W 123°03'1444.0
2017-Feb-16 16:05N 46°12' W 123°23'1426.2
2017-Feb-16 15:33N 46°10' W 123°03'0 0.0
2017-Feb-16 15:23N 46°10' W 123°03'142791.3
2017-Feb-16 15:23N 46°12' W 123°23'1416.8
2017-Feb-16 14:33N 46°10' W 123°03'14797.6
2017-Feb-16 14:32N 46°12' W 123°23'14144.8
2017-Feb-16 14:26N 46°10' W 123°03'0 0.0
2017-Feb-16 13:33N 46°10' W 123°03'0 0.5
2017-Feb-16 13:32N 46°10' W 123°03'142791.3
2017-Feb-16 13:32N 46°12' W 123°23'1414.0
2017-Feb-16 12:32N 46°10' W 123°03'0 0.2
2017-Feb-16 12:30N 46°10' W 123°03'14785.1
2017-Feb-16 12:29N 46°12' W 123°23'49293.8
2017-Feb-16 12:19N 45°33' W 122°42'4052.2
2017-Feb-16 11:33N 46°10' W 123°03'0 0.5
2017-Feb-16 11:32N 46°10' W 123°03'142955.5
2017-Feb-16 11:32N 46°12' W 123°23'1414.0
2017-Feb-16 10:32N 46°10' W 123°03'0 0.2
2017-Feb-16 10:30N 46°10' W 123°03'14201.0
2017-Feb-16 10:26N 46°12' W 123°23'1415.6
2017-Feb-16 09:32N 46°10' W 123°03'142512.2
2017-Feb-16 09:32N 46°12' W 123°23'14440.8
2017-Feb-16 09:30N 46°10' W 123°03'0 0.0
2017-Feb-16 08:33N 46°10' W 123°03'0 0.5
2017-Feb-16 08:32N 46°10' W 123°03'14252.5
2017-Feb-16 08:29N 46°12' W 123°23'1414.2
2017-Feb-16 07:30N 46°10' W 123°03'0 0.1
2017-Feb-16 07:23N 46°10' W 123°03'1489.9
2017-Feb-16 07:14N 46°12' W 123°23'1419.0
2017-Feb-16 06:30N 46°10' W 123°03'14985.2
2017-Feb-16 06:29N 46°12' W 123°23'14170.9
2017-Feb-16 06:24N 46°10' W 123°03'0 0.0
2017-Feb-16 05:32N 46°10' W 123°03'142392.5
2017-Feb-16 05:32N 46°12' W 123°23'14433.2
2017-Feb-16 05:30N 46°10' W 123°03'0 0.0
2017-Feb-16 04:29N 46°10' W 123°03'142283.9
2017-Feb-16 04:29N 46°12' W 123°23'14170.3
2017-Feb-16 04:24N 46°10' W 123°03'0 0.0
2017-Feb-16 03:33N 46°10' W 123°03'0 0.5
2017-Feb-16 03:32N 46°10' W 123°03'142512.2
2017-Feb-16 03:32N 46°12' W 123°23'1414.2
2017-Feb-16 02:33N 46°10' W 123°03'0 0.1
2017-Feb-16 02:29N 46°10' W 123°03'14248.7
2017-Feb-16 02:26N 46°12' W 123°23'1415.6
2017-Feb-16 01:32N 46°10' W 123°03'0 0.1
2017-Feb-16 01:27N 46°10' W 123°03'14203.4
2017-Feb-16 01:23N 46°12' W 123°23'1416.8
2017-Feb-16 00:33N 46°10' W 123°03'0 0.5
2017-Feb-16 00:32N 46°10' W 123°03'14131.5
2017-Feb-16 00:26N 46°12' W 123°23'1415.8
2017-Feb-15 23:33N 46°10' W 123°03'0 0.5
2017-Feb-15 23:32N 46°10' W 123°03'142009.7
2017-Feb-15 23:32N 46°12' W 123°23'1414.2
2017-Feb-15 22:33N 46°10' W 123°03'0 0.5
2017-Feb-15 22:32N 46°10' W 123°03'14248.7
2017-Feb-15 22:29N 46°12' W 123°23'1415.0
2017-Feb-15 21:33N 46°10' W 123°03'0 0.5
2017-Feb-15 21:32N 46°10' W 123°03'40147.2
2017-Feb-15 21:16N 45°33' W 122°42'4966.2
2017-Feb-15 20:32N 46°12' W 123°23'14436.9
2017-Feb-15 20:30N 46°10' W 123°03'0 0.6
2017-Feb-15 20:29N 46°10' W 123°03'0 0.0
2017-Feb-15 19:32N 46°10' W 123°03'0 0.1
2017-Feb-15 19:30N 46°10' W 123°03'0 0.0
2017-Feb-15 18:32N 46°10' W 123°03'0 0.0
2017-Feb-15 18:24N 46°10' W 123°03'1464.2
2017-Feb-15 18:11N 46°12' W 123°23'1421.7
2017-Feb-15 17:32N 46°10' W 123°03'0 0.2
2017-Feb-15 17:30N 46°10' W 123°03'14205.1
2017-Feb-15 17:26N 46°12' W 123°23'0 0.0
2017-Feb-15 16:29N 46°12' W 123°23'14328.4
2017-Feb-15 16:26N 46°10' W 123°03'0 0.1
2017-Feb-15 16:24N 46°10' W 123°03'0 0.0
2017-Feb-15 15:33N 46°10' W 123°03'0 0.6
2017-Feb-15 15:32N 46°10' W 123°03'1488.3
2017-Feb-15 15:23N 46°12' W 123°23'1415.7
2017-Feb-15 14:30N 46°10' W 123°03'141620.7
2017-Feb-15 14:29N 46°12' W 123°23'14418.7
2017-Feb-15 14:27N 46°10' W 123°03'0 0.0
2017-Feb-15 13:33N 46°10' W 123°03'0 0.6
2017-Feb-15 13:32N 46°10' W 123°03'1488.5
2017-Feb-15 13:23N 46°12' W 123°23'1415.8
2017-Feb-15 12:30N 46°10' W 123°03'14837.4
2017-Feb-15 12:29N 46°12' W 123°23'14328.4
2017-Feb-15 12:26N 46°10' W 123°03'0 0.0
2017-Feb-15 11:32N 46°10' W 123°03'141620.7
2017-Feb-15 11:32N 46°12' W 123°23'1476.5
2017-Feb-15 11:21N 46°10' W 123°03'1417.1
2017-Feb-15 10:32N 46°12' W 123°23'14440.8
2017-Feb-15 10:30N 46°10' W 123°03'0 0.1
2017-Feb-15 10:26N 46°10' W 123°03'0 0.0
2017-Feb-15 09:33N 46°10' W 123°03'0 0.6
2017-Feb-15 09:32N 46°10' W 123°03'1466.7
2017-Feb-15 09:20N 46°12' W 123°23'1417.9
2017-Feb-15 08:33N 46°10' W 123°03'0 0.8
2017-Feb-15 08:33N 46°10' W 123°03'0 0.0
2017-Feb-15 07:32N 46°10' W 123°03'0 0.1
2017-Feb-15 07:30N 46°10' W 123°03'1464.0
2017-Feb-15 07:17N 46°12' W 123°23'1419.1
2017-Feb-15 06:33N 46°10' W 123°03'0 0.7
2017-Feb-15 06:32N 46°10' W 123°03'14239.3
2017-Feb-15 06:29N 46°12' W 123°23'1415.0
2017-Feb-15 05:33N 46°10' W 123°03'14797.6
2017-Feb-15 05:32N 46°12' W 123°23'14155.6
2017-Feb-15 05:27N 46°10' W 123°03'0 0.0
2017-Feb-15 04:33N 46°10' W 123°03'0 0.0
2017-Feb-15 04:21N 46°10' W 123°03'0 0.0
2017-Feb-15 03:33N 46°10' W 123°03'0 0.1
2017-Feb-15 03:30N 46°10' W 123°03'1452.0
2017-Feb-15 03:14N 46°12' W 123°23'0 0.0
2017-Feb-15 02:32N 46°12' W 123°23'14440.8
2017-Feb-15 02:30N 46°10' W 123°03'0 0.8
2017-Feb-15 02:30N 46°10' W 123°03'0 0.0
2017-Feb-15 01:30N 46°10' W 123°03'14127.8
2017-Feb-15 01:23N 46°12' W 123°23'14429.5
2017-Feb-15 01:21N 46°10' W 123°03'0 0.0
2017-Feb-15 00:33N 46°10' W 123°03'0 0.7
2017-Feb-15 00:33N 46°10' W 123°03'14233.7
2017-Feb-15 00:29N 46°12' W 123°23'1415.0
2017-Feb-14 23:33N 46°10' W 123°03'0 0.8
2017-Feb-14 23:33N 46°10' W 123°03'14231.5
2017-Feb-14 23:29N 46°12' W 123°23'1415.0
2017-Feb-14 22:33N 46°10' W 123°03'0 0.1
2017-Feb-14 22:27N 46°10' W 123°03'0 0.0
2017-Feb-14 21:30N 46°10' W 123°03'0 0.1
2017-Feb-14 21:27N 46°10' W 123°03'0 0.0
2017-Feb-14 20:33N 46°10' W 123°03'0 0.1
2017-Feb-14 20:27N 46°10' W 123°03'0 0.0
2017-Feb-14 19:33N 46°10' W 123°03'0 0.1
2017-Feb-14 19:27N 46°10' W 123°03'0 0.0
2017-Feb-14 18:33N 46°10' W 123°03'0 0.1
2017-Feb-14 18:30N 46°10' W 123°03'0 0.0
2017-Feb-14 17:33N 46°10' W 123°03'0 1.0
2017-Feb-14 17:33N 46°10' W 123°03'0 0.0
2017-Feb-14 16:33N 46°10' W 123°03'0 0.0
2017-Feb-14 16:30N 46°10' W 123°03'1433.9
2017-Feb-14 16:05N 46°12' W 123°23'1425.9
2017-Feb-14 15:33N 46°10' W 123°03'0 0.1
2017-Feb-14 15:30N 46°10' W 123°03'1444.0
2017-Feb-14 15:11N 46°12' W 123°23'1420.5
2017-Feb-14 14:30N 46°10' W 123°03'0 0.9
2017-Feb-14 14:30N 46°10' W 123°03'1434.0
2017-Feb-14 14:05N 46°12' W 123°23'1426.1
2017-Feb-14 13:33N 46°10' W 123°03'0 1.0
2017-Feb-14 13:33N 46°10' W 123°03'1485.9
2017-Feb-14 13:23N 46°12' W 123°23'1416.8
2017-Feb-14 12:33N 46°10' W 123°03'0 1.1
2017-Feb-14 12:33N 46°10' W 123°03'1486.2
2017-Feb-14 12:23N 46°12' W 123°23'1416.7
2017-Feb-14 11:33N 46°10' W 123°03'0 0.1
2017-Feb-14 11:30N 46°10' W 123°03'14203.4
2017-Feb-14 11:26N 46°12' W 123°23'1415.7
2017-Feb-14 10:33N 46°10' W 123°03'0 0.1
2017-Feb-14 10:30N 46°10' W 123°03'14118.2
2017-Feb-14 10:23N 46°12' W 123°23'1416.8
2017-Feb-14 09:33N 46°10' W 123°03'0 1.0
2017-Feb-14 09:33N 46°10' W 123°03'40142.3
2017-Feb-14 09:16N 45°33' W 122°42'4052.4
2017-Feb-14 08:30N 46°10' W 123°03'0 1.1
2017-Feb-14 08:30N 46°10' W 123°03'0 0.0
2017-Feb-14 07:32N 46°10' W 123°03'0 0.1
2017-Feb-14 07:27N 46°10' W 123°03'1464.0
2017-Feb-14 07:14N 46°12' W 123°23'1420.4
2017-Feb-14 06:33N 46°10' W 123°03'0 0.1
2017-Feb-14 06:26N 46°10' W 123°03'  
Track history (hours):
 
Tides and Currents Weather Stations Pressure Air Temp Water Temp Dewpoint Dewpoint Depression Visibility Wind Speed Wind Dir Waves Ship Positions

Zarling

Owner: Clean Rivers Co-op, Portland, OR. More information available from US FCC via Universal Licensing System.

Last reported at 2017-Feb-24 05:33 UTC. Time now 2017-Feb-24 05:57 UTC.
Position N 46°10' W 123°03'.

Length 12 m.

Type: Pollution control. MMSI: 3699126.

Date/timePositionNaut miles runAvg speedWind from/ knotsBaromVisibWave heightAir tempDewpointWater temp
2017-Feb-24 05:33N 46°10' W 123°03'14497.5
2017-Feb-24 05:31N 46°12' W 123°23'14158.5
2017-Feb-24 05:26N 46°10' W 123°03'40162.3
2017-Feb-24 05:11N 45°33' W 122°42'4061.3
2017-Feb-24 04:32N 46°10' W 123°03'14227.3
2017-Feb-24 04:28N 46°12' W 123°23'14628.1
2017-Feb-24 04:27N 46°10' W 123°03'40615.9
2017-Feb-24 04:23N 45°33' W 122°42'4047.9
2017-Feb-24 03:33N 46°10' W 123°03'40942.1
2017-Feb-24 03:30N 45°33' W 122°42'401758.0
2017-Feb-24 03:29N 46°10' W 123°03'14223.3
2017-Feb-24 03:25N 46°12' W 123°23'1415.7
2017-Feb-24 02:32N 46°10' W 123°03'141196.3
2017-Feb-24 02:31N 46°12' W 123°23'14628.1
2017-Feb-24 02:30N 46°10' W 123°03'40271.4
2017-Feb-24 02:21N 45°33' W 122°42'0 0.0
2017-Feb-24 01:33N 45°33' W 122°42'40581.3
2017-Feb-24 01:29N 46°10' W 123°03'0 0.2
2017-Feb-24 01:27N 46°10' W 123°03'1442.5
2017-Feb-24 01:07N 46°12' W 123°23'1424.4
2017-Feb-24 00:33N 46°10' W 123°03'0 0.4
2017-Feb-24 00:32N 46°10' W 123°03'141225.4
2017-Feb-24 00:31N 46°12' W 123°23'49401.6
2017-Feb-24 00:24N 45°33' W 122°42'4955.3
2017-Feb-23 23:31N 46°12' W 123°23'14628.1
2017-Feb-23 23:30N 46°10' W 123°03'0 0.4
2017-Feb-23 23:29N 46°10' W 123°03'40141.9
2017-Feb-23 23:12N 45°33' W 122°42'0 0.0
2017-Feb-23 22:30N 45°33' W 122°42'4014413.8
2017-Feb-23 22:30N 46°10' W 123°03'0 0.1
2017-Feb-23 22:26N 46°10' W 123°03'14222.3
2017-Feb-23 22:22N 46°12' W 123°23'1417.0
2017-Feb-23 21:33N 46°10' W 123°03'0 0.4
2017-Feb-23 21:32N 46°10' W 123°03'141196.3
2017-Feb-23 21:31N 46°12' W 123°23'1414.4
2017-Feb-23 20:33N 46°10' W 123°03'14474.0
2017-Feb-23 20:31N 46°12' W 123°23'14161.0
2017-Feb-23 20:26N 46°10' W 123°03'0 0.0
2017-Feb-23 19:32N 46°10' W 123°03'14985.2
2017-Feb-23 19:31N 46°12' W 123°23'14661.1
2017-Feb-23 19:30N 46°10' W 123°03'40115.0
2017-Feb-23 19:09N 45°33' W 122°42'4064.8
2017-Feb-23 18:32N 46°10' W 123°03'141116.5
2017-Feb-23 18:31N 46°12' W 123°23'14620.3
2017-Feb-23 18:30N 46°10' W 123°03'1414.3
2017-Feb-23 17:31N 46°12' W 123°23'14652.6
2017-Feb-23 17:30N 46°10' W 123°03'0 0.4
2017-Feb-23 17:29N 46°10' W 123°03'0 0.0
2017-Feb-23 16:33N 46°10' W 123°03'0 0.4
2017-Feb-23 16:32N 46°10' W 123°03'141004.9
2017-Feb-23 16:31N 46°12' W 123°23'0 0.0
2017-Feb-23 15:31N 46°12' W 123°23'14636.0
2017-Feb-23 15:30N 46°10' W 123°03'0 0.1
2017-Feb-23 15:26N 46°10' W 123°03'0 0.0
2017-Feb-23 14:30N 46°10' W 123°03'0 0.4
2017-Feb-23 14:29N 46°10' W 123°03'0 0.0
2017-Feb-23 13:23N 46°10' W 123°03'0 0.2
2017-Feb-23 13:21N 46°10' W 123°03'14492.6
2017-Feb-23 13:19N 46°12' W 123°23'1417.0
2017-Feb-23 12:30N 46°10' W 123°03'14178.2
2017-Feb-23 12:25N 46°12' W 123°23'14163.1
2017-Feb-23 12:20N 46°10' W 123°03'0 0.0
2017-Feb-23 11:33N 46°10' W 123°03'0 3.0
2017-Feb-23 11:32N 46°10' W 123°03'1465.1
2017-Feb-23 11:19N 46°12' W 123°23'1417.8
2017-Feb-23 10:32N 46°10' W 123°03'14948.0
2017-Feb-23 10:31N 46°12' W 123°23'14652.6
2017-Feb-23 10:30N 46°10' W 123°03'0 0.0
2017-Feb-23 09:30N 46°10' W 123°03'0 0.4
2017-Feb-23 09:29N 46°10' W 123°03'14217.5
2017-Feb-23 09:25N 46°12' W 123°23'1416.0
2017-Feb-23 08:33N 46°10' W 123°03'0 0.1
2017-Feb-23 08:29N 46°10' W 123°03'14214.7
2017-Feb-23 08:25N 46°12' W 123°23'1416.0
2017-Feb-23 07:33N 46°10' W 123°03'0 0.5
2017-Feb-23 07:32N 46°10' W 123°03'14217.5
2017-Feb-23 07:28N 46°12' W 123°23'1415.1
2017-Feb-23 06:33N 46°10' W 123°03'0 0.5
2017-Feb-23 06:32N 46°10' W 123°03'14216.6
2017-Feb-23 06:28N 46°12' W 123°23'1414.2
2017-Feb-23 05:29N 46°10' W 123°03'14213.8
2017-Feb-23 05:25N 46°12' W 123°23'14114.2
2017-Feb-23 05:18N 46°10' W 123°03'0 0.0
2017-Feb-23 04:33N 46°10' W 123°03'0 0.3
2017-Feb-23 04:31N 46°10' W 123°03'142392.5
2017-Feb-23 04:31N 46°12' W 123°23'1414.3
2017-Feb-23 03:33N 46°10' W 123°03'0 0.5
2017-Feb-23 03:32N 46°10' W 123°03'1444.3
2017-Feb-23 03:13N 46°12' W 123°23'1420.1
2017-Feb-23 02:31N 46°10' W 123°03'0 0.1
2017-Feb-23 02:27N 46°10' W 123°03'0 0.0
2017-Feb-23 01:33N 46°10' W 123°03'0 0.0
2017-Feb-23 01:22N 46°10' W 123°03'141860.9
2017-Feb-23 01:22N 46°12' W 123°23'1417.0
2017-Feb-23 00:33N 46°10' W 123°03'0 0.1
2017-Feb-23 00:28N 46°10' W 123°03'0 0.0
2017-Feb-22 23:31N 46°10' W 123°03'141794.4
2017-Feb-22 23:31N 46°12' W 123°23'14114.5
2017-Feb-22 23:24N 46°10' W 123°03'0 0.0
2017-Feb-22 22:31N 46°10' W 123°03'141620.7
2017-Feb-22 22:31N 46°12' W 123°23'14192.5
2017-Feb-22 22:27N 46°10' W 123°03'1415.1
2017-Feb-22 21:31N 46°12' W 123°23'14598.2
2017-Feb-22 21:30N 46°10' W 123°03'0 0.5
2017-Feb-22 21:29N 46°10' W 123°03'1414.5
2017-Feb-22 20:31N 46°12' W 123°23'14628.1
2017-Feb-22 20:30N 46°10' W 123°03'0 0.3
2017-Feb-22 20:28N 46°10' W 123°03'0 0.0
2017-Feb-22 19:31N 46°10' W 123°03'141570.1
2017-Feb-22 19:31N 46°12' W 123°23'14115.2
2017-Feb-22 19:24N 46°10' W 123°03'0 0.0
2017-Feb-22 18:31N 46°10' W 123°03'0 0.2
2017-Feb-22 18:30N 46°10' W 123°03'1478.3
2017-Feb-22 18:19N 46°12' W 123°23'0 0.0
2017-Feb-22 17:31N 46°12' W 123°23'14151.3
2017-Feb-22 17:25N 46°10' W 123°03'0 0.2
2017-Feb-22 17:24N 46°10' W 123°03'0 0.0
2017-Feb-22 16:31N 46°10' W 123°03'141732.5
2017-Feb-22 16:31N 46°12' W 123°23'14605.4
2017-Feb-22 16:30N 46°10' W 123°03'4042.3
2017-Feb-22 15:33N 45°33' W 122°42'401676.3
2017-Feb-22 15:31N 46°10' W 123°03'0 0.2
2017-Feb-22 15:30N 46°10' W 123°03'14182.1
2017-Feb-22 15:25N 46°12' W 123°23'1415.6
2017-Feb-22 14:31N 46°10' W 123°03'0 0.2
2017-Feb-22 14:30N 46°10' W 123°03'14487.8
2017-Feb-22 14:28N 46°12' W 123°23'4952.9
2017-Feb-22 13:33N 45°33' W 122°42'40560.8
2017-Feb-22 13:28N 46°10' W 123°03'0 0.1
2017-Feb-22 13:23N 46°10' W 123°03'14225.3
2017-Feb-22 13:19N 46°12' W 123°23'1417.7
2017-Feb-22 12:32N 46°10' W 123°03'0 3.1
2017-Feb-22 12:31N 46°10' W 123°03'141477.7
2017-Feb-22 12:31N 46°12' W 123°23'49152.3
2017-Feb-22 12:12N 45°33' W 122°42'4059.9
2017-Feb-22 11:32N 46°10' W 123°03'0 2.7
2017-Feb-22 11:31N 46°10' W 123°03'401413.3
2017-Feb-22 11:30N 45°33' W 122°42'491268.9
2017-Feb-22 11:27N 46°12' W 123°23'1415.0
2017-Feb-22 10:31N 46°10' W 123°03'401334.8
2017-Feb-22 10:30N 45°33' W 122°42'40583.6
2017-Feb-22 10:26N 46°10' W 123°03'1444.3
2017-Feb-22 10:07N 46°12' W 123°23'0 0.0
2017-Feb-22 09:31N 46°12' W 123°23'14380.6
2017-Feb-22 09:28N 46°10' W 123°03'0 0.1
2017-Feb-22 09:26N 46°10' W 123°03'0 0.0
2017-Feb-22 08:32N 46°10' W 123°03'0 4.3
2017-Feb-22 08:31N 46°10' W 123°03'141004.9
2017-Feb-22 08:31N 46°12' W 123°23'1414.2
2017-Feb-22 07:32N 46°10' W 123°03'0 5.4
2017-Feb-22 07:32N 46°10' W 123°03'141025.4
2017-Feb-22 07:31N 46°12' W 123°23'1414.2
2017-Feb-22 06:32N 46°10' W 123°03'0 2.7
2017-Feb-22 06:32N 46°10' W 123°03'14985.2
2017-Feb-22 06:31N 46°12' W 123°23'1414.2
2017-Feb-22 05:32N 46°10' W 123°03'0 5.4
2017-Feb-22 05:32N 46°10' W 123°03'40173.7
2017-Feb-22 05:18N 45°33' W 122°42'49264.1
2017-Feb-22 05:07N 46°12' W 123°23'1423.9
2017-Feb-22 04:32N 46°10' W 123°03'0 4.3
2017-Feb-22 04:32N 46°10' W 123°03'401347.3
2017-Feb-22 04:30N 45°33' W 122°42'49581.8
2017-Feb-22 04:25N 46°12' W 123°23'1415.8
2017-Feb-22 03:32N 46°10' W 123°03'0 0.1
2017-Feb-22 03:29N 46°10' W 123°03'14215.6
2017-Feb-22 03:25N 46°12' W 123°23'49738.9
2017-Feb-22 03:21N 45°33' W 122°42'4048.9
2017-Feb-22 02:32N 46°10' W 123°03'0 0.0
2017-Feb-22 02:20N 46°10' W 123°03'14948.0
2017-Feb-22 02:19N 46°12' W 123°23'49294.8
2017-Feb-22 02:09N 45°33' W 122°42'4064.5
2017-Feb-22 01:32N 46°10' W 123°03'0 0.1
2017-Feb-22 01:29N 46°10' W 123°03'401275.6
2017-Feb-22 01:27N 45°33' W 122°42'0 0.0
2017-Feb-22 00:30N 45°33' W 122°42'491447.2
2017-Feb-22 00:28N 46°12' W 123°23'14402.0
2017-Feb-22 00:26N 46°10' W 123°03'0 7.2
2017-Feb-22 00:26N 46°10' W 123°03'0 0.0
2017-Feb-21 23:32N 46°10' W 123°03'40495.3
2017-Feb-21 23:27N 45°33' W 122°42'402059.4
2017-Feb-21 23:26N 46°10' W 123°03'1444.3
2017-Feb-21 23:07N 46°12' W 123°23'4985.9
2017-Feb-21 22:33N 45°33' W 122°42'402119.4
2017-Feb-21 22:32N 46°10' W 123°03'0 0.1
2017-Feb-21 22:29N 46°10' W 123°03'14212.9
2017-Feb-21 22:25N 46°12' W 123°23'1415.8
2017-Feb-21 21:32N 46°10' W 123°03'14985.2
2017-Feb-21 21:31N 46°12' W 123°23'14395.6
2017-Feb-21 21:29N 46°10' W 123°03'0 0.0
2017-Feb-21 20:32N 46°10' W 123°03'0 0.1
2017-Feb-21 20:29N 46°10' W 123°03'1484.0
2017-Feb-21 20:19N 46°12' W 123°23'4964.1
2017-Feb-21 19:33N 45°33' W 122°42'401481.2
2017-Feb-21 19:32N 46°10' W 123°03'021.6
2017-Feb-21 19:32N 46°10' W 123°03'14897.3
2017-Feb-21 19:31N 46°12' W 123°23'1414.2
2017-Feb-21 18:32N 46°10' W 123°03'0 0.1
2017-Feb-21 18:29N 46°10' W 123°03'14212.9
2017-Feb-21 18:25N 46°12' W 123°23'49250.5
2017-Feb-21 18:13N 45°33' W 122°42'4058.7
2017-Feb-21 17:32N 46°10' W 123°03'0 0.1
2017-Feb-21 17:26N 46°10' W 123°03'14120.8
2017-Feb-21 17:19N 46°12' W 123°23'1418.3
2017-Feb-21 16:33N 46°10' W 123°03'14100.1
2017-Feb-21 16:25N 46°12' W 123°23'14415.2
2017-Feb-21 16:23N 46°10' W 123°03'0 0.0
2017-Feb-21 15:30N 46°10' W 123°03'0 0.3
2017-Feb-21 15:29N 46°10' W 123°03'1484.0
2017-Feb-21 15:19N 46°12' W 123°23'1418.3
2017-Feb-21 14:33N 46°10' W 123°03'0 0.3
2017-Feb-21 14:32N 46°10' W 123°03'14881.5
2017-Feb-21 14:31N 46°12' W 123°23'1414.2
2017-Feb-21 13:32N 46°10' W 123°03'14881.5
2017-Feb-21 13:31N 46°12' W 123°23'141256.2
2017-Feb-21 13:30N 46°10' W 123°03'0 0.0
2017-Feb-21 12:33N 46°10' W 123°03'0 0.3
2017-Feb-21 12:32N 46°10' W 123°03'14851.6
2017-Feb-21 12:31N 46°12' W 123°23'1414.5
2017-Feb-21 11:33N 46°10' W 123°03'0 0.1
2017-Feb-21 11:29N 46°10' W 123°03'0 0.0
2017-Feb-21 10:33N 46°10' W 123°03'0 0.3
2017-Feb-21 10:32N 46°10' W 123°03'14810.4
2017-Feb-21 10:31N 46°12' W 123°23'1414.5
2017-Feb-21 09:33N 46°10' W 123°03'0 0.3
2017-Feb-21 09:32N 46°10' W 123°03'14207.6
2017-Feb-21 09:28N 46°12' W 123°23'1415.3
2017-Feb-21 08:33N 46°10' W 123°03'14356.4
2017-Feb-21 08:31N 46°12' W 123°23'14422.2
2017-Feb-21 08:29N 46°10' W 123°03'0 0.0
2017-Feb-21 07:33N 46°10' W 123°03'14356.4
2017-Feb-21 07:31N 46°12' W 123°23'14433.1
2017-Feb-21 07:29N 46°10' W 123°03'0 0.0
2017-Feb-21 06:32N 46°10' W 123°03'14823.7
2017-Feb-21 06:31N 46°12' W 123°23'141256.2
2017-Feb-21 06:30N 46°10' W 123°03'0 0.0
2017-Feb-21 05:33N 46°10' W 123°03'0 0.3
2017-Feb-21 05:32N 46°10' W 123°03'1482.9
2017-Feb-21 05:22N 46°12' W 123°23'1417.2
2017-Feb-21 04:33N 46°10' W 123°03'0 0.3
2017-Feb-21 04:32N 46°10' W 123°03'14118.5
2017-Feb-21 04:25N 46°12' W 123°23'1416.2
2017-Feb-21 03:33N 46°10' W 123°03'0 0.5
2017-Feb-21 03:32N 46°10' W 123°03'14110.4
2017-Feb-21 03:25N 46°12' W 123°23'1416.0
2017-Feb-21 02:32N 46°10' W 123°03'0 0.1
2017-Feb-21 02:27N 46°10' W 123°03'14100.5
2017-Feb-21 02:19N 46°12' W 123°23'1418.3
2017-Feb-21 01:33N 46°10' W 123°03'0 0.5
2017-Feb-21 01:32N 46°10' W 123°03'401802.0
2017-Feb-21 01:31N 45°33' W 122°42'498338.5
2017-Feb-21 01:31N 46°12' W 123°23'0 0.0
2017-Feb-21 00:31N 46°12' W 123°23'14126.2
2017-Feb-21 00:24N 46°10' W 123°03'0 0.3
2017-Feb-21 00:23N 46°10' W 123°03'40355.9
2017-Feb-21 00:16N 45°33' W 122°42'4055.9
2017-Feb-20 23:33N 46°10' W 123°03'14358.9
2017-Feb-20 23:31N 46°12' W 123°23'14422.2
2017-Feb-20 23:29N 46°10' W 123°03'40188.0
2017-Feb-20 23:16N 45°33' W 122°42'4055.9
2017-Feb-20 22:33N 46°10' W 123°03'0 0.3
2017-Feb-20 22:32N 46°10' W 123°03'14717.8
2017-Feb-20 22:31N 46°12' W 123°23'49199.2
2017-Feb-20 22:16N 45°33' W 122°42'0 0.0
2017-Feb-20 21:31N 45°33' W 122°42'497612.6
2017-Feb-20 21:31N 46°12' W 123°23'141288.4
2017-Feb-20 21:30N 46°10' W 123°03'0 0.3
2017-Feb-20 21:29N 46°10' W 123°03'0 0.0
2017-Feb-20 20:32N 46°10' W 123°03'403067.2
2017-Feb-20 20:31N 45°33' W 122°42'402252.2
2017-Feb-20 20:30N 46°10' W 123°03'14158.0
2017-Feb-20 20:25N 46°12' W 123°23'1414.2
2017-Feb-20 19:26N 46°10' W 123°03'403067.2
2017-Feb-20 19:25N 45°33' W 122°42'497296.2
2017-Feb-20 19:25N 46°12' W 123°23'141358.0
2017-Feb-20 19:24N 46°10' W 123°03'0 0.0
2017-Feb-20 18:33N 46°10' W 123°03'0 0.3
2017-Feb-20 18:32N 46°10' W 123°03'14707.7
2017-Feb-20 18:31N 46°12' W 123°23'49123.4
2017-Feb-20 18:07N 45°33' W 122°42'4070.6
2017-Feb-20 17:33N 46°10' W 123°03'0 0.1
2017-Feb-20 17:29N 46°10' W 123°03'14201.0
2017-Feb-20 17:25N 46°12' W 123°23'1415.8
2017-Feb-20 16:32N 46°10' W 123°03'0 0.2
2017-Feb-20 16:30N 46°10' W 123°03'1473.7
2017-Feb-20 16:19N 46°12' W 123°23'1418.3
2017-Feb-20 15:33N 46°10' W 123°03'14358.9
2017-Feb-20 15:31N 46°12' W 123°23'14221.3
2017-Feb-20 15:27N 46°10' W 123°03'40156.2
2017-Feb-20 15:12N 45°33' W 122°42'4062.2
2017-Feb-20 14:33N 46°10' W 123°03'0 0.1
2017-Feb-20 14:27N 46°10' W 123°03'14364.1
2017-Feb-20 14:25N 46°12' W 123°23'49152.1
2017-Feb-20 14:06N 45°33' W 122°42'4074.0
2017-Feb-20 13:33N 46°10' W 123°03'0 2.4
2017-Feb-20 13:33N 46°10' W 123°03'14160.0
2017-Feb-20 13:28N 46°12' W 123°23'49180.9
2017-Feb-20 13:12N 45°33' W 122°42'4062.4
2017-Feb-20 12:33N 46°10' W 123°03'0 2.7
2017-Feb-20 12:33N 46°10' W 123°03'14380.6
2017-Feb-20 12:31N 46°12' W 123°23'49406.3
2017-Feb-20 12:23N 45°33' W 122°42'4047.6
2017-Feb-20 11:33N 46°10' W 123°03'0 0.1
2017-Feb-20 11:30N 46°10' W 123°03'406267.8
2017-Feb-20 11:30N 45°33' W 122°42'49112.8
2017-Feb-20 11:04N 46°12' W 123°23'1426.8
2017-Feb-20 10:32N 46°10' W 123°03'0 0.1
2017-Feb-20 10:27N 46°10' W 123°03'14353.8
2017-Feb-20 10:25N 46°12' W 123°23'1415.3
2017-Feb-20 09:30N 46°10' W 123°03'0 0.6
2017-Feb-20 09:29N 46°10' W 123°03'1477.8
2017-Feb-20 09:19N 46°12' W 123°23'1418.1
2017-Feb-20 08:32N 46°10' W 123°03'14507.5
2017-Feb-20 08:31N 46°12' W 123°23'141142.0
2017-Feb-20 08:30N 46°10' W 123°03'404504.3
2017-Feb-20 08:30N 45°33' W 122°42'4042.1
2017-Feb-20 07:32N 46°10' W 123°03'14478.5
2017-Feb-20 07:31N 46°12' W 123°23'14125.6
2017-Feb-20 07:24N 46°10' W 123°03'0 0.0
2017-Feb-20 06:33N 46°10' W 123°03'0 0.3
2017-Feb-20 06:32N 46°10' W 123°03'14192.5
2017-Feb-20 06:28N 46°12' W 123°23'0 0.0
2017-Feb-20 05:31N 46°12' W 123°23'14474.0
2017-Feb-20 05:29N 46°10' W 123°03'0 0.2
2017-Feb-20 05:27N 46°10' W 123°03'0 0.0
2017-Feb-20 04:32N 46°10' W 123°03'0 0.2
2017-Feb-20 04:30N 46°10' W 123°03'14156.0
2017-Feb-20 04:25N 46°12' W 123°23'1416.2
2017-Feb-20 03:33N 46°10' W 123°03'0 0.0
2017-Feb-20 03:14N 46°10' W 123°03'0 0.0
2017-Feb-20 02:33N 46°10' W 123°03'0 0.3
2017-Feb-20 02:32N 46°10' W 123°03'0 0.0
2017-Feb-20 01:33N 46°10' W 123°03'0 0.3
2017-Feb-20 01:32N 46°10' W 123°03'0 0.0
2017-Feb-20 00:32N 46°10' W 123°03'0 0.1
2017-Feb-20 00:27N 46°10' W 123°03'1458.6
2017-Feb-20 00:13N 46°12' W 123°23'0 0.0
2017-Feb-19 23:31N 46°12' W 123°23'141288.4
2017-Feb-19 23:30N 46°10' W 123°03'40683.1
2017-Feb-19 23:27N 45°33' W 122°42'40683.2
2017-Feb-19 23:23N 46°10' W 123°03'0 0.0
2017-Feb-19 22:32N 46°10' W 123°03'0 0.2
2017-Feb-19 22:30N 46°10' W 123°03'0 0.0
2017-Feb-19 21:33N 46°10' W 123°03'405337.7
2017-Feb-19 21:33N 45°33' W 122°42'40683.1
2017-Feb-19 21:29N 46°10' W 123°03'1462.6
2017-Feb-19 21:16N 46°12' W 123°23'1418.4
2017-Feb-19 20:30N 46°10' W 123°03'405338.5
2017-Feb-19 20:30N 45°33' W 122°42'404650.3
2017-Feb-19 20:29N 46°10' W 123°03'1451.4
2017-Feb-19 20:13N 46°12' W 123°23'1421.1
2017-Feb-19 19:33N 46°10' W 123°03'0 0.4
2017-Feb-19 19:32N 46°10' W 123°03'0 0.0
2017-Feb-19 18:33N 46°10' W 123°03'14366.8
2017-Feb-19 18:31N 46°12' W 123°23'14497.5
2017-Feb-19 18:29N 46°10' W 123°03'0 0.0
2017-Feb-19 17:32N 46°10' W 123°03'0 0.1
2017-Feb-19 17:27N 46°10' W 123°03'14100.5
2017-Feb-19 17:19N 46°12' W 123°23'1418.3
2017-Feb-19 16:33N 46°10' W 123°03'0 0.4
2017-Feb-19 16:32N 46°10' W 123°03'1462.4
2017-Feb-19 16:19N 46°12' W 123°23'1418.0
2017-Feb-19 15:32N 46°10' W 123°03'14598.1
2017-Feb-19 15:31N 46°12' W 123°23'141256.2
2017-Feb-19 15:30N 46°10' W 123°03'0 0.0
2017-Feb-19 14:32N 46°10' W 123°03'0 0.1
2017-Feb-19 14:27N 46°10' W 123°03'1458.4
2017-Feb-19 14:13N 46°12' W 123°23'1419.6
2017-Feb-19 13:30N 46°10' W 123°03'0 0.4
2017-Feb-19 13:29N 46°10' W 123°03'40165.1
2017-Feb-19 13:15N 45°33' W 122°42'491606.5
2017-Feb-19 13:13N 46°12' W 123°23'1419.2
2017-Feb-19 12:29N 46°10' W 123°03'14189.6
2017-Feb-19 12:25N 46°12' W 123°23'141225.5
2017-Feb-19 12:24N 46°10' W 123°03'0 0.0
2017-Feb-19 11:32N 46°10' W 123°03'0 0.2
2017-Feb-19 11:30N 46°10' W 123°03'14100.1
2017-Feb-19 11:22N 46°12' W 123°23'1416.2
2017-Feb-19 10:30N 46°10' W 123°03'0 0.4
2017-Feb-19 10:29N 46°10' W 123°03'14188.2
2017-Feb-19 10:25N 46°12' W 123°23'1415.3
2017-Feb-19 09:30N 46°10' W 123°03'0 0.4
2017-Feb-19 09:29N 46°10' W 123°03'0 0.0
2017-Feb-19 08:33N 46°10' W 123°03'0 0.0
2017-Feb-19 08:26N 46°10' W 123°03'40296.0
2017-Feb-19 08:18N 45°33' W 122°42'4052.3
2017-Feb-19 07:32N 46°10' W 123°03'0 0.2
2017-Feb-19 07:30N 46°10' W 123°03'1458.3
2017-Feb-19 07:16N 46°12' W 123°23'1419.0
2017-Feb-19 06:32N 46°10' W 123°03'0 0.1
2017-Feb-19 06:27N 46°10' W 123°03'14358.9
2017-Feb-19 06:25N 46°12' W 123°23'1415.0
2017-Feb-19 05:29N 46°10' W 123°03'0 0.1
2017-Feb-19 05:24N 46°10' W 123°03'0 0.0
2017-Feb-19 04:32N 46°10' W 123°03'14810.4
2017-Feb-19 04:31N 46°12' W 123°23'141358.0
2017-Feb-19 04:30N 46°10' W 123°03'40111.7
2017-Feb-19 04:09N 45°33' W 122°42'4067.6
2017-Feb-19 03:33N 46°10' W 123°03'0 0.0
2017-Feb-19 03:23N 46°10' W 123°03'40294.2
2017-Feb-19 03:15N 45°33' W 122°42'49371.8
2017-Feb-19 03:07N 46°12' W 123°23'1422.9
2017-Feb-19 02:30N 46°10' W 123°03'0 0.1
2017-Feb-19 02:26N 46°10' W 123°03'14851.6
2017-Feb-19 02:25N 46°12' W 123°23'1415.8
2017-Feb-19 01:32N 46°10' W 123°03'0 0.2
2017-Feb-19 01:30N 46°10' W 123°03'14351.4
2017-Feb-19 01:28N 46°12' W 123°23'1415.0
2017-Feb-19 00:32N 46°10' W 123°03'0 0.2
2017-Feb-19 00:30N 46°10' W 123°03'1474.0
2017-Feb-19 00:19N 46°12' W 123°23'0 0.0
2017-Feb-18 23:31N 46°12' W 123°23'141142.0
2017-Feb-18 23:30N 46°10' W 123°03'0 0.3
2017-Feb-18 23:29N 46°10' W 123°03'0 0.0
2017-Feb-18 22:33N 46°10' W 123°03'0 0.3
2017-Feb-18 22:32N 46°10' W 123°03'40169.0
2017-Feb-18 22:18N 45°33' W 122°42'4054.0
2017-Feb-18 21:33N 46°10' W 123°03'0 0.0
2017-Feb-18 21:26N 46°10' W 123°03'0 0.0
2017-Feb-18 20:32N 46°10' W 123°03'14773.0
2017-Feb-18 20:31N 46°12' W 123°23'141358.0
2017-Feb-18 20:30N 46°10' W 123°03'0 0.0
2017-Feb-18 19:29N 46°10' W 123°03'40466.5
2017-Feb-18 19:24N 45°33' W 122°42'40942.1
2017-Feb-18 19:21N 46°10' W 123°03'1458.5
2017-Feb-18 19:07N 46°12' W 123°23'1424.0
2017-Feb-18 18:32N 46°10' W 123°03'14761.3
2017-Feb-18 18:31N 46°12' W 123°23'14226.3
2017-Feb-18 18:27N 46°10' W 123°03'40112.0
2017-Feb-18 18:06N 45°33' W 122°42'4067.8
2017-Feb-18 17:30N 46°10' W 123°03'0 0.1
2017-Feb-18 17:26N 46°10' W 123°03'14749.9
2017-Feb-18 17:25N 46°12' W 123°23'1411.8
2017-Feb-18 16:14N 46°10' W 123°03'0 0.0
2017-Feb-18 15:29N 46°10' W 123°03'0 0.2
2017-Feb-18 15:27N 46°10' W 123°03'14358.9
2017-Feb-18 15:25N 46°12' W 123°23'1415.8
2017-Feb-18 14:32N 46°10' W 123°03'0 0.2
2017-Feb-18 14:30N 46°10' W 123°03'1473.6
2017-Feb-18 14:19N 46°12' W 123°23'0 0.0
2017-Feb-18 13:31N 46°12' W 123°23'14227.4
2017-Feb-18 13:27N 46°10' W 123°03'0 0.3
2017-Feb-18 13:26N 46°10' W 123°03'0 0.0
2017-Feb-18 12:33N 46°10' W 123°03'0 0.5
2017-Feb-18 12:32N 46°10' W 123°03'14502.4
2017-Feb-18 12:31N 46°12' W 123°23'1414.5
2017-Feb-18 11:33N 46°10' W 123°03'0 0.6
2017-Feb-18 11:32N 46°10' W 123°03'14487.8
2017-Feb-18 11:31N 46°12' W 123°23'1414.4
2017-Feb-18 10:32N 46°10' W 123°03'0 0.2
2017-Feb-18 10:30N 46°10' W 123°03'0 0.0
2017-Feb-18 09:33N 46°10' W 123°03'0 0.6
2017-Feb-18 09:32N 46°10' W 123°03'0 0.0
2017-Feb-18 08:30N 46°10' W 123°03'0 0.1
2017-Feb-18 08:26N 46°10' W 123°03'1443.8
2017-Feb-18 08:07N 46°12' W 123°23'0 0.0
2017-Feb-18 07:31N 46°12' W 123°23'141288.4
2017-Feb-18 07:30N 46°10' W 123°03'0 0.0
2017-Feb-18 07:17N 46°10' W 123°03'0 0.0
2017-Feb-18 06:32N 46°10' W 123°03'0 0.1
2017-Feb-18 06:27N 46°10' W 123°03'1473.5
2017-Feb-18 06:16N 46°12' W 123°23'1419.2
2017-Feb-18 05:32N 46°10' W 123°03'0 0.1
2017-Feb-18 05:27N 46°10' W 123°03'1441.2
2017-Feb-18 05:07N 46°12' W 123°23'1424.9
2017-Feb-18 04:33N 46°10' W 123°03'0 0.3
2017-Feb-18 04:32N 46°10' W 123°03'0 0.0
2017-Feb-18 03:33N 46°10' W 123°03'0 0.3
2017-Feb-18 03:32N 46°10' W 123°03'1433.3
2017-Feb-18 03:07N 46°12' W 123°23'1424.8
2017-Feb-18 02:33N 46°10' W 123°03'0 0.1
2017-Feb-18 02:29N 46°10' W 123°03'1482.0
2017-Feb-18 02:19N 46°12' W 123°23'1417.9
2017-Feb-18 01:32N 46°10' W 123°03'0 0.2
2017-Feb-18 01:30N 46°10' W 123°03'14157.0
2017-Feb-18 01:25N 46°12' W 123°23'1416.2
2017-Feb-18 00:33N 46°10' W 123°03'14361.5
2017-Feb-18 00:31N 46°12' W 123°23'14483.1
2017-Feb-18 00:29N 46°10' W 123°03'0 0.0
2017-Feb-17 23:32N 46°10' W 123°03'0 0.2
2017-Feb-17 23:30N 46°10' W 123°03'1448.3
2017-Feb-17 23:13N 46°12' W 123°23'1421.1
2017-Feb-17 22:33N 46°10' W 123°03'0 0.3
2017-Feb-17 22:32N 46°10' W 123°03'0 0.0
2017-Feb-17 21:33N 46°10' W 123°03'0 0.4
2017-Feb-17 21:32N 46°10' W 123°03'0 0.0
2017-Feb-17 20:30N 46°10' W 123°03'0 0.3
2017-Feb-17 20:29N 46°10' W 123°03'1437.6
2017-Feb-17 20:07N 46°12' W 123°23'1424.4
2017-Feb-17 19:32N 46°10' W 123°03'0 0.2
2017-Feb-17 19:30N 46°10' W 123°03'1473.9
2017-Feb-17 19:19N 46°12' W 123°23'1418.4
2017-Feb-17 18:33N 46°10' W 123°03'0 0.1
2017-Feb-17 18:29N 46°10' W 123°03'14195.5
2017-Feb-17 18:25N 46°12' W 123°23'1416.2
2017-Feb-17 17:33N 46°10' W 123°03'0 0.3
2017-Feb-17 17:32N 46°10' W 123°03'14114.7
2017-Feb-17 17:25N 46°12' W 123°23'1416.2
2017-Feb-17 16:33N 46°10' W 123°03'0 0.1
2017-Feb-17 16:26N 46°10' W 123°03'14644.1
2017-Feb-17 16:25N 46°12' W 123°23'1416.2
2017-Feb-17 15:33N 46°10' W 123°03'0 0.3
2017-Feb-17 15:32N 46°10' W 123°03'14114.7
2017-Feb-17 15:25N 46°12' W 123°23'0 0.0
2017-Feb-17 14:31N 46°12' W 123°23'14512.7
2017-Feb-17 14:29N 46°10' W 123°03'0 0.2
2017-Feb-17 14:27N 46°10' W 123°03'0 0.0
2017-Feb-17 13:33N 46°10' W 123°03'0 0.4
2017-Feb-17 13:32N 46°10' W 123°03'14192.5
2017-Feb-17 13:28N 46°12' W 123°23'1415.0
2017-Feb-17 12:32N 46°10' W 123°03'14652.5
2017-Feb-17 12:31N 46°12' W 123°23'14124.4
2017-Feb-17 12:24N 46°10' W 123°03'0 0.0
2017-Feb-17 11:32N 46°10' W 123°03'14612.7
2017-Feb-17 11:31N 46°12' W 123°23'141256.2
2017-Feb-17 11:30N 46°10' W 123°03'0 0.0
2017-Feb-17 10:32N 46°10' W 123°03'0 0.2
2017-Feb-17 10:30N 46°10' W 123°03'14351.4
2017-Feb-17 10:28N 46°12' W 123°23'1415.1
2017-Feb-17 09:32N 46°10' W 123°03'0 0.2
2017-Feb-17 09:30N 46°10' W 123°03'40683.0
2017-Feb-17 09:27N 45°33' W 122°42'4044.9
2017-Feb-17 08:33N 46°10' W 123°03'14353.8
2017-Feb-17 08:31N 46°12' W 123°23'14512.7
2017-Feb-17 08:29N 46°10' W 123°03'0 0.0
2017-Feb-17 07:32N 46°10' W 123°03'14591.1
2017-Feb-17 07:31N 46°12' W 123°23'141322.3
2017-Feb-17 07:30N 46°10' W 123°03'40217.0
2017-Feb-17 07:19N 45°33' W 122°42'4052.2
2017-Feb-17 06:33N 46°10' W 123°03'0 0.1
2017-Feb-17 06:29N 46°10' W 123°03'40588.4
2017-Feb-17 06:25N 45°33' W 122°42'49312.1
2017-Feb-17 06:16N 46°12' W 123°23'1419.2
2017-Feb-17 05:32N 46°10' W 123°03'40340.8
2017-Feb-17 05:25N 45°33' W 122°42'498338.5
2017-Feb-17 05:25N 46°12' W 123°23'141288.4
2017-Feb-17 05:24N 46°10' W 123°03'0 0.0
2017-Feb-17 04:33N 46°10' W 123°03'401201.0
2017-Feb-17 04:31N 45°33' W 122°42'498754.5
2017-Feb-17 04:31N 46°12' W 123°23'14518.0
2017-Feb-17 04:29N 46°10' W 123°03'0 0.0
2017-Feb-17 03:27N 46°10' W 123°03'14100.1
2017-Feb-17 03:19N 46°12' W 123°23'14184.0
2017-Feb-17 03:14N 46°10' W 123°03'0 0.0
2017-Feb-17 02:33N 46°10' W 123°03'0 0.4
2017-Feb-17 02:32N 46°10' W 123°03'402120.0
2017-Feb-17 02:31N 45°33' W 122°42'49875.5
2017-Feb-17 02:28N 46°12' W 123°23'4951.5
2017-Feb-17 01:31N 45°33' W 122°42'49761.3
2017-Feb-17 01:27N 46°12' W 123°23'144567.9
2017-Feb-17 01:27N 46°10' W 123°03'0 0.4
2017-Feb-17 01:26N 46°10' W 123°03'0 0.0
2017-Feb-17 00:32N 46°10' W 123°03'14497.5
2017-Feb-17 00:30N 46°12' W 123°23'14132.2
2017-Feb-17 00:24N 46°10' W 123°03'1416.5
2017-Feb-16 23:33N 46°12' W 123°23'142184.6
2017-Feb-16 23:33N 46°10' W 123°03'0 0.1
2017-Feb-16 23:26N 46°10' W 123°03'0 0.0
2017-Feb-16 22:33N 46°10' W 123°03'0 0.5
2017-Feb-16 22:32N 46°10' W 123°03'14107.8
2017-Feb-16 22:24N 46°12' W 123°23'49542.1
2017-Feb-16 22:19N 45°33' W 122°42'4048.1
2017-Feb-16 21:29N 46°10' W 123°03'0 0.2
2017-Feb-16 21:27N 46°10' W 123°03'40171.2
2017-Feb-16 21:13N 45°33' W 122°42'4058.8
2017-Feb-16 20:32N 46°10' W 123°03'0 0.2
2017-Feb-16 20:30N 46°10' W 123°03'14150.4
2017-Feb-16 20:24N 46°12' W 123°23'0 0.0
2017-Feb-16 19:24N 46°12' W 123°23'142283.9
2017-Feb-16 19:24N 46°10' W 123°03'0 0.4
2017-Feb-16 19:23N 46°10' W 123°03'0 0.0
2017-Feb-16 18:33N 46°10' W 123°03'0 0.1
2017-Feb-16 18:26N 46°10' W 123°03'0 0.0
2017-Feb-16 17:33N 46°10' W 123°03'0 0.4
2017-Feb-16 17:32N 46°10' W 123°03'14469.6
2017-Feb-16 17:30N 46°12' W 123°23'1414.4
2017-Feb-16 16:32N 46°10' W 123°03'0 0.0
2017-Feb-16 16:24N 46°10' W 123°03'1444.0
2017-Feb-16 16:05N 46°12' W 123°23'1426.2
2017-Feb-16 15:33N 46°10' W 123°03'0 0.0
2017-Feb-16 15:23N 46°10' W 123°03'142791.3
2017-Feb-16 15:23N 46°12' W 123°23'1416.8
2017-Feb-16 14:33N 46°10' W 123°03'14797.6
2017-Feb-16 14:32N 46°12' W 123°23'14144.8
2017-Feb-16 14:26N 46°10' W 123°03'0 0.0
2017-Feb-16 13:33N 46°10' W 123°03'0 0.5
2017-Feb-16 13:32N 46°10' W 123°03'142791.3
2017-Feb-16 13:32N 46°12' W 123°23'1414.0
2017-Feb-16 12:32N 46°10' W 123°03'0 0.2
2017-Feb-16 12:30N 46°10' W 123°03'14785.1
2017-Feb-16 12:29N 46°12' W 123°23'49293.8
2017-Feb-16 12:19N 45°33' W 122°42'4052.2
2017-Feb-16 11:33N 46°10' W 123°03'0 0.5
2017-Feb-16 11:32N 46°10' W 123°03'142955.5
2017-Feb-16 11:32N 46°12' W 123°23'1414.0
2017-Feb-16 10:32N 46°10' W 123°03'0 0.2
2017-Feb-16 10:30N 46°10' W 123°03'14201.0
2017-Feb-16 10:26N 46°12' W 123°23'1415.6
2017-Feb-16 09:32N 46°10' W 123°03'142512.2
2017-Feb-16 09:32N 46°12' W 123°23'14440.8
2017-Feb-16 09:30N 46°10' W 123°03'0 0.0
2017-Feb-16 08:33N 46°10' W 123°03'0 0.5
2017-Feb-16 08:32N 46°10' W 123°03'14252.5
2017-Feb-16 08:29N 46°12' W 123°23'1414.2
2017-Feb-16 07:30N 46°10' W 123°03'0 0.1
2017-Feb-16 07:23N 46°10' W 123°03'1489.9
2017-Feb-16 07:14N 46°12' W 123°23'1419.0
2017-Feb-16 06:30N 46°10' W 123°03'14985.2
2017-Feb-16 06:29N 46°12' W 123°23'14170.9
2017-Feb-16 06:24N 46°10' W 123°03'0 0.0
2017-Feb-16 05:32N 46°10' W 123°03'142392.5
2017-Feb-16 05:32N 46°12' W 123°23'14433.2
2017-Feb-16 05:30N 46°10' W 123°03'0 0.0
2017-Feb-16 04:29N 46°10' W 123°03'142283.9
2017-Feb-16 04:29N 46°12' W 123°23'14170.3
2017-Feb-16 04:24N 46°10' W 123°03'0 0.0
2017-Feb-16 03:33N 46°10' W 123°03'0 0.5
2017-Feb-16 03:32N 46°10' W 123°03'142512.2
2017-Feb-16 03:32N 46°12' W 123°23'1414.2
2017-Feb-16 02:33N 46°10' W 123°03'0 0.1
2017-Feb-16 02:29N 46°10' W 123°03'14248.7
2017-Feb-16 02:26N 46°12' W 123°23'1415.6
2017-Feb-16 01:32N 46°10' W 123°03'0 0.1
2017-Feb-16 01:27N 46°10' W 123°03'14203.4
2017-Feb-16 01:23N 46°12' W 123°23'1416.8
2017-Feb-16 00:33N 46°10' W 123°03'0 0.5
2017-Feb-16 00:32N 46°10' W 123°03'14131.5
2017-Feb-16 00:26N 46°12' W 123°23'1415.8
2017-Feb-15 23:33N 46°10' W 123°03'0 0.5
2017-Feb-15 23:32N 46°10' W 123°03'142009.7
2017-Feb-15 23:32N 46°12' W 123°23'1414.2
2017-Feb-15 22:33N 46°10' W 123°03'0 0.5
2017-Feb-15 22:32N 46°10' W 123°03'14248.7
2017-Feb-15 22:29N 46°12' W 123°23'1415.0
2017-Feb-15 21:33N 46°10' W 123°03'0 0.5
2017-Feb-15 21:32N 46°10' W 123°03'40147.2
2017-Feb-15 21:16N 45°33' W 122°42'4966.2
2017-Feb-15 20:32N 46°12' W 123°23'14436.9
2017-Feb-15 20:30N 46°10' W 123°03'0 0.6
2017-Feb-15 20:29N 46°10' W 123°03'0 0.0
2017-Feb-15 19:32N 46°10' W 123°03'0 0.1
2017-Feb-15 19:30N 46°10' W 123°03'0 0.0
2017-Feb-15 18:32N 46°10' W 123°03'0 0.0
2017-Feb-15 18:24N 46°10' W 123°03'1464.2
2017-Feb-15 18:11N 46°12' W 123°23'1421.7
2017-Feb-15 17:32N 46°10' W 123°03'0 0.2
2017-Feb-15 17:30N 46°10' W 123°03'14205.1
2017-Feb-15 17:26N 46°12' W 123°23'0 0.0
2017-Feb-15 16:29N 46°12' W 123°23'14328.4
2017-Feb-15 16:26N 46°10' W 123°03'0 0.1
2017-Feb-15 16:24N 46°10' W 123°03'0 0.0
2017-Feb-15 15:33N 46°10' W 123°03'0 0.6
2017-Feb-15 15:32N 46°10' W 123°03'1488.3
2017-Feb-15 15:23N 46°12' W 123°23'1415.7
2017-Feb-15 14:30N 46°10' W 123°03'141620.7
2017-Feb-15 14:29N 46°12' W 123°23'14418.7
2017-Feb-15 14:27N 46°10' W 123°03'0 0.0
2017-Feb-15 13:33N 46°10' W 123°03'0 0.6
2017-Feb-15 13:32N 46°10' W 123°03'1488.5
2017-Feb-15 13:23N 46°12' W 123°23'1415.8
2017-Feb-15 12:30N 46°10' W 123°03'14837.4
2017-Feb-15 12:29N 46°12' W 123°23'14328.4
2017-Feb-15 12:26N 46°10' W 123°03'0 0.0
2017-Feb-15 11:32N 46°10' W 123°03'141620.7
2017-Feb-15 11:32N 46°12' W 123°23'1476.5
2017-Feb-15 11:21N 46°10' W 123°03'1417.1
2017-Feb-15 10:32N 46°12' W 123°23'14440.8
2017-Feb-15 10:30N 46°10' W 123°03'0 0.1
2017-Feb-15 10:26N 46°10' W 123°03'0 0.0
2017-Feb-15 09:33N 46°10' W 123°03'0 0.6
2017-Feb-15 09:32N 46°10' W 123°03'1466.7
2017-Feb-15 09:20N 46°12' W 123°23'1417.9
2017-Feb-15 08:33N 46°10' W 123°03'0 0.8
2017-Feb-15 08:33N 46°10' W 123°03'0 0.0
2017-Feb-15 07:32N 46°10' W 123°03'0 0.1
2017-Feb-15 07:30N 46°10' W 123°03'1464.0
2017-Feb-15 07:17N 46°12' W 123°23'1419.1
2017-Feb-15 06:33N 46°10' W 123°03'0 0.7
2017-Feb-15 06:32N 46°10' W 123°03'14239.3
2017-Feb-15 06:29N 46°12' W 123°23'1415.0
2017-Feb-15 05:33N 46°10' W 123°03'14797.6
2017-Feb-15 05:32N 46°12' W 123°23'14155.6
2017-Feb-15 05:27N 46°10' W 123°03'0 0.0
2017-Feb-15 04:33N 46°10' W 123°03'0 0.0
2017-Feb-15 04:21N 46°10' W 123°03'0 0.0
2017-Feb-15 03:33N 46°10' W 123°03'0 0.1
2017-Feb-15 03:30N 46°10' W 123°03'1452.0
2017-Feb-15 03:14N 46°12' W 123°23'0 0.0
2017-Feb-15 02:32N 46°12' W 123°23'14440.8
2017-Feb-15 02:30N 46°10' W 123°03'0 0.8
2017-Feb-15 02:30N 46°10' W 123°03'0 0.0
2017-Feb-15 01:30N 46°10' W 123°03'14127.8
2017-Feb-15 01:23N 46°12' W 123°23'14429.5
2017-Feb-15 01:21N 46°10' W 123°03'0 0.0
2017-Feb-15 00:33N 46°10' W 123°03'0 0.7
2017-Feb-15 00:33N 46°10' W 123°03'14233.7
2017-Feb-15 00:29N 46°12' W 123°23'1415.0
2017-Feb-14 23:33N 46°10' W 123°03'0 0.8
2017-Feb-14 23:33N 46°10' W 123°03'14231.5
2017-Feb-14 23:29N 46°12' W 123°23'1415.0
2017-Feb-14 22:33N 46°10' W 123°03'0 0.1
2017-Feb-14 22:27N 46°10' W 123°03'0 0.0
2017-Feb-14 21:30N 46°10' W 123°03'0 0.1
2017-Feb-14 21:27N 46°10' W 123°03'0 0.0
2017-Feb-14 20:33N 46°10' W 123°03'0 0.1
2017-Feb-14 20:27N 46°10' W 123°03'0 0.0
2017-Feb-14 19:33N 46°10' W 123°03'0 0.1
2017-Feb-14 19:27N 46°10' W 123°03'0 0.0
2017-Feb-14 18:33N 46°10' W 123°03'0 0.1
2017-Feb-14 18:30N 46°10' W 123°03'0 0.0
2017-Feb-14 17:33N 46°10' W 123°03'0 1.0
2017-Feb-14 17:33N 46°10' W 123°03'0 0.0
2017-Feb-14 16:33N 46°10' W 123°03'0 0.0
2017-Feb-14 16:30N 46°10' W 123°03'1433.9
2017-Feb-14 16:05N 46°12' W 123°23'1425.9
2017-Feb-14 15:33N 46°10' W 123°03'0 0.1
2017-Feb-14 15:30N 46°10' W 123°03'1444.0
2017-Feb-14 15:11N 46°12' W 123°23'1420.5
2017-Feb-14 14:30N 46°10' W 123°03'0 0.9
2017-Feb-14 14:30N 46°10' W 123°03'1434.0
2017-Feb-14 14:05N 46°12' W 123°23'1426.1
2017-Feb-14 13:33N 46°10' W 123°03'0 1.0
2017-Feb-14 13:33N 46°10' W 123°03'1485.9
2017-Feb-14 13:23N 46°12' W 123°23'1416.8
2017-Feb-14 12:33N 46°10' W 123°03'0 1.1
2017-Feb-14 12:33N 46°10' W 123°03'1486.2
2017-Feb-14 12:23N 46°12' W 123°23'1416.7
2017-Feb-14 11:33N 46°10' W 123°03'0 0.1
2017-Feb-14 11:30N 46°10' W 123°03'14203.4
2017-Feb-14 11:26N 46°12' W 123°23'1415.7
2017-Feb-14 10:33N 46°10' W 123°03'0 0.1
2017-Feb-14 10:30N 46°10' W 123°03'14118.2
2017-Feb-14 10:23N 46°12' W 123°23'1416.8
2017-Feb-14 09:33N 46°10' W 123°03'0 1.0
2017-Feb-14 09:33N 46°10' W 123°03'40142.3
2017-Feb-14 09:16N 45°33' W 122°42'4052.4
2017-Feb-14 08:30N 46°10' W 123°03'0 1.1
2017-Feb-14 08:30N 46°10' W 123°03'0 0.0
2017-Feb-14 07:32N 46°10' W 123°03'0 0.1
2017-Feb-14 07:27N 46°10' W 123°03'1464.0
2017-Feb-14 07:14N 46°12' W 123°23'1420.4
2017-Feb-14 06:33N 46°10' W 123°03'0 0.1
2017-Feb-14 06:26N 46°10' W 123°03'  

Dump ship's entire track history